Flight Track Log - Related Links

Times and Time Zones

All times are in EDT time to prevent confusion due to time zone crossing. See the DAL268 flight status page for this flight to view local times or setup timezone preferences in your user account.

Time Position Orientation Groundspeed Altitude Reporting Facility
EDT Latitude Longitude Course Direction KTS MPH feet Rate Location/Type
Mon 11:39:28 PM 40.6340 -73.7770 North 2 2  Level FlightAware ADS-B
Mon 11:40:10 PM 40.6340 -73.7760 90° East 2 2 Level FlightAware ADS-B
Mon 11:40:52 PM 40.6350 -73.7760 360° North 9 10 Level FlightAware ADS-B
Mon 11:42:47 PM 40.6340 -73.7760 180° South 2 2 Level FlightAware ADS-B
Mon 11:45:00 PM 40.8573 -73.5760 37° Northeast  Level FlightAware Approximate
Mon 11:45:06 PM 40.6330 -73.7760 37° Northeast  Level FlightAware ADS-B
Mon 11:47:00 PM 40.8204 -73.6000 North  Level FlightAware Approximate
Mon 11:48:00 PM 40.9314 -73.5020 37° Northeast  Level FlightAware Approximate
Mon 11:49:00 PM 41.0413 -73.4087 30° Northeast  Level FlightAware Approximate
Mon 11:50:00 PM 41.1603 -73.3230 37° Northeast  Level FlightAware Approximate
Mon 11:51:00 PM 41.2736 -73.2240 29° Northeast  Level FlightAware Approximate
Mon 11:51:51 PM 40.6320 -73.7760 217° Southwest 15 17  Level FlightAware ADS-B
Mon 11:52:20 PM 40.6310 -73.7760 180° South 19 22 19 Level FlightAware ADS-B
Mon 11:52:33 PM 40.6310 -73.7770 270° West 21 24 20 Level FlightAware ADS-B
Mon 11:52:59 PM 40.6310 -73.7760 90° East 19 22 20 Level FlightAware ADS-B
Mon 11:53:15 PM 40.6300 -73.7750 143° Southeast 22 25 21 Level FlightAware ADS-B
Mon 11:53:43 PM 40.6290 -73.7740 143° Southeast 23 26 22 Level FlightAware ADS-B
Mon 11:54:11 PM 40.6290 -73.7730 90° East 27 31 23 Level FlightAware ADS-B
Mon 11:54:26 PM 40.6280 -73.7720 143° Southeast 25 29 24 Level FlightAware ADS-B
Mon 11:55:11 PM 40.6270 -73.7700 123° Southeast 22 25 25 Level FlightAware ADS-B
Mon 11:56:05 PM 40.6260 -73.7690 143° Southeast 16 18 28 Level FlightAware ADS-B
Mon 11:58:00 PM 40.8299 -73.6000 North  Level FlightAware Approximate
Mon 11:59:00 PM 40.9404 -73.5000 North  Level FlightAware Approximate
Tue 12:00:00 AM 41.0496 -73.4022 30° Northeast  Level FlightAware Approximate
Tue 12:00:39 AM 40.6250 -73.7700 30° Northeast 20 23  Level FlightAware ADS-B
Tue 12:01:25 AM 40.6250 -73.7710 270° West 16 18 115 Level FlightAware ADS-B
Tue 12:01:55 AM 40.6300 -73.7820 301° West 115 132 207 Level FlightAware ADS-B
Tue 12:02:23 AM 40.6400 -73.8050 300° West 181 208 200 1,053 Climbing FlightAware ADS-B
Tue 12:02:52 AM 40.6480 -73.8360 289° West 192 221 1,000 1,650 Climbing FlightAware ADS-B
Tue 12:03:03 AM 40.6460 -73.8470 257° West 196 226 1,300 1,333 Climbing FlightAware ADS-B
Tue 12:03:19 AM 40.6360 -73.8640 232° Southwest 215 247 1,600 955 Climbing FlightAware ADS-B
Tue 12:03:47 AM 40.6100 -73.8810 206° Southwest 246 283 2,000 1,029 Climbing FlightAware ADS-B
Tue 12:03:54 AM 40.6010 -73.8830 190° South 257 296 2,200 1,241 Climbing FlightAware ADS-B
Tue 12:04:16 AM 40.5760 -73.8700 158° South 275 316 2,600 1,412 Climbing FlightAware ADS-B
Tue 12:04:28 AM 40.5660 -73.8540 129° Southeast 279 321 3,000 1,655 Climbing FlightAware ADS-B
Tue 12:04:45 AM 40.5600 -73.8270 106° East 287 330 3,400 2,000 Climbing FlightAware ADS-B
Tue 12:05:13 AM 40.5680 -73.7790 78° East 296 341 4,500 2,286 Climbing FlightAware ADS-B
Tue 12:05:27 AM 40.5811 -73.7581 50° Northeast 298 343 5,000 2,491 Climbing FlightAware ADS-B
Tue 12:06:06 AM 40.6174 -73.7049 48° Northeast 302 348 6,700 2,556 Climbing FlightAware ADS-B
Tue 12:06:21 AM 40.6316 -73.6829 50° Northeast 313 360 7,300 2,471 Climbing FlightAware ADS-B
Tue 12:06:23 AM 40.6329 -73.6808 51° Northeast 314 361 7,400 2,526 Climbing FlightAware ADS-B
Tue 12:06:40 AM 40.6496 -73.6555 49° Northeast 320 368 8,100 2,250 Climbing FlightAware ADS-B
Tue 12:06:55 AM 40.6643 -73.6334 49° Northeast 325 374 8,600 2,250 Climbing FlightAware ADS-B
Tue 12:07:12 AM 40.6813 -73.6084 48° Northeast 329 379 9,300 2,192 Climbing FlightAware ADS-B
Tue 12:07:47 AM 40.7194 -73.5583 45° Northeast 335 386 10,500 1,733 Climbing FlightAware ADS-B
Tue 12:07:57 AM 40.7332 -73.5458 34° Northeast 350 403 10,600 941 Climbing FlightAware ADS-B
Tue 12:08:38 AM 40.7950 -73.5060 26° Northeast 388 447 11,300 1,159 Climbing FlightAware ADS-B
Tue 12:09:25 AM 40.8760 -73.4560 25° Northeast 428 493 12,300 1,655 Climbing FlightAware ADS-B
Tue 12:10:05 AM 40.9480 -73.4100 26° Northeast 439 505 13,700 2,100 Climbing FlightAware ADS-B
Tue 12:10:45 AM 41.0230 -73.3620 26° Northeast 450 518 15,100 2,268 Climbing FlightAware ADS-B
Tue 12:11:27 AM 41.1030 -73.3110 26° Northeast 455 524 16,800 2,195 Climbing FlightAware ADS-B
Tue 12:12:07 AM 41.1797 -73.2612 26° Northeast 463 533 18,100 1,852 Climbing FlightAware ADS-B
Tue 12:12:48 AM 41.2590 -73.2050 28° Northeast 479 551 19,300 1,714 Climbing FlightAware ADS-B
Tue 12:13:31 AM 41.3240 -73.1110 47° Northeast 495 570 20,500 1,571 Climbing FlightAware ADS-B
Tue 12:14:12 AM 41.3810 -73.0070 54° Northeast 508 585 21,500 1,440 Climbing FlightAware ADS-B
Tue 12:15:11 AM 41.4600 -72.8610 54° Northeast 518 596 22,900 1,461 Climbing FlightAware ADS-B
Tue 12:16:07 AM 41.5430 -72.7110 53° Northeast 528 608 24,300 947 Climbing FlightAware ADS-B
Tue 12:17:05 AM 41.6190 -72.5750 53° Northeast 532 612 24,700 725 Climbing FlightAware ADS-B
Tue 12:17:38 AM 41.6630 -72.4930 54° Northeast 532 612 25,400 1,622 Climbing FlightAware ADS-B
Tue 12:18:19 AM 41.7460 -72.3600 50° Northeast 559 643 26,700 1,322 Climbing FlightAware ADS-B
Tue 12:19:36 AM 41.8750 -72.1490 51° Northeast 571 657 28,000 1,026 Climbing FlightAware ADS-B
Tue 12:20:16 AM 41.9410 -72.0390 51° Northeast 578 665 28,700 1,116 Climbing FlightAware ADS-B
Tue 12:21:02 AM 42.0190 -71.9100 51° Northeast 581 669 29,600 1,186 Climbing FlightAware ADS-B
Tue 12:21:42 AM 42.0860 -71.7980 51° Northeast 579 666 30,400 1,214 Climbing FlightAware ADS-B
Tue 12:22:26 AM 42.1580 -71.6740 52° Northeast 578 665 31,300 1,214 Climbing FlightAware ADS-B
Tue 12:23:06 AM 42.2260 -71.5590 51° Northeast 577 664 32,100 1,000 Climbing FlightAware ADS-B
Tue 12:23:50 AM 42.2980 -71.4380 51° Northeast 578 665 32,700 714 Climbing FlightAware ADS-B
Tue 12:24:30 AM 42.3660 -71.3230 51° Northeast 582 670 33,100 300 Climbing FlightAware ADS-B
Tue 12:25:10 AM 42.4340 -71.2070 52° Northeast 583 671 33,100  Level FlightAware ADS-B
Tue 12:25:54 AM 42.5070 -71.0840 51° Northeast 584 672 33,100  Level FlightAware ADS-B
Tue 12:26:36 AM 42.5780 -70.9610 52° Northeast 584 672 33,100  Level FlightAware ADS-B
Tue 12:27:20 AM 42.6480 -70.8410 52° Northeast 585 673 33,100  Level FlightAware ADS-B
Tue 12:27:59 AM 42.7170 -70.7230 51° Northeast 587 676 33,100  Level FlightAware ADS-B
Tue 12:28:43 AM 42.7910 -70.5950 52° Northeast 587 676 33,100  Level FlightAware ADS-B
Tue 12:29:24 AM 42.8600 -70.4730 52° Northeast 588 677 33,100  Level FlightAware ADS-B
Tue 12:30:08 AM 42.9330 -70.3450 52° Northeast 588 677 33,100  Level FlightAware ADS-B
Tue 12:30:48 AM 43.0000 -70.2280 52° Northeast 588 677 33,100  Level FlightAware ADS-B
Tue 12:31:28 AM 43.0670 -70.1090 52° Northeast 589 678 33,100  Level FlightAware ADS-B
Tue 12:32:12 AM 43.1390 -69.9810 52° Northeast 591 680 33,100  Level FlightAware ADS-B
Tue 12:33:06 AM 43.2270 -69.8250 52° Northeast 585 673 33,100  Level FlightAware ADS-B
Tue 12:33:51 AM 43.2970 -69.6990 53° Northeast 587 676 33,100  Level FlightAware ADS-B
Tue 12:34:31 AM 43.3620 -69.5840 52° Northeast 587 676 33,100  Level FlightAware ADS-B
Tue 12:35:30 AM 43.4690 -69.3910 53° Northeast 592 681 33,100  Level FlightAware ADS-B
Tue 12:36:08 AM 43.5250 -69.2920 52° Northeast 592 681 33,100  Level FlightAware ADS-B
Tue 12:36:51 AM 43.6030 -69.1470 53° Northeast 592 681 33,100  Level FlightAware ADS-B
Tue 12:37:44 AM 43.6790 -69.0090 53° Northeast 592 681 33,100  Level FlightAware ADS-B
Tue 12:38:26 AM 43.7560 -68.8680 53° Northeast 592 681 33,100  Level FlightAware ADS-B
Tue 12:39:04 AM 43.8090 -68.7700 53° Northeast 592 681 33,100  Level FlightAware ADS-B
Tue 12:39:51 AM 43.8980 -68.6060 53° Northeast 594 684 33,100  Level FlightAware ADS-B
Tue 12:40:36 AM 43.9710 -68.4690 53° Northeast 596 686 33,100  Level FlightAware ADS-B
Tue 12:41:19 AM 44.0450 -68.3310 53° Northeast 595 685 33,100  Level FlightAware ADS-B
Tue 12:41:58 AM 44.1060 -68.2160 54° Northeast 596 686 33,100  Level FlightAware ADS-B
Tue 12:42:44 AM 44.1830 -68.0700 54° Northeast 596 686 33,100  Level FlightAware ADS-B
Tue 12:43:20 AM 44.2410 -67.9580 54° Northeast 597 687 33,100  Level FlightAware ADS-B
Tue 12:44:07 AM 44.3180 -67.8110 54° Northeast 597 687 33,100  Level FlightAware ADS-B
Tue 12:44:47 AM 44.3840 -67.6840 54° Northeast 594 684 33,100  Level FlightAware ADS-B
Tue 12:45:31 AM 44.4540 -67.5500 54° Northeast 593 682 33,100  Level FlightAware ADS-B
Tue 12:46:13 AM 44.5230 -67.4180 54° Northeast 591 680 33,100  Level FlightAware ADS-B
Tue 12:46:53 AM 44.5870 -67.2940 54° Northeast 588 677 33,100  Level FlightAware ADS-B
Tue 12:47:37 AM 44.6570 -67.1580 54° Northeast 586 674 33,100  Level FlightAware ADS-B
Tue 12:48:16 AM 44.7150 -67.0450 54° Northeast 586 674 33,100  Level FlightAware ADS-B
Tue 12:49:01 AM 44.7880 -66.9020 54° Northeast 587 676 33,100  Level FlightAware ADS-B
Tue 12:49:42 AM 44.8540 -66.7710 55° Northeast 587 676 33,100  Level FlightAware ADS-B
Tue 12:50:26 AM 44.9240 -66.6330 54° Northeast 587 676 33,100  Level FlightAware ADS-B
Tue 12:50:53 AM 44.9650 -66.5500 55° Northeast 588 677 33,100  Level FlightAware ADS-B
Tue 12:51:33 AM 45.0270 -66.4250 55° Northeast 590 679 33,100  Level FlightAware ADS-B
Tue 12:52:18 AM 45.0990 -66.2820 54° Northeast 591 680 33,100  Level FlightAware ADS-B
Tue 12:52:57 AM 45.1590 -66.1600 55° Northeast 591 680 33,100  Level FlightAware ADS-B
Tue 12:53:43 AM 45.2320 -66.0130 55° Northeast 591 680 33,100  Level FlightAware ADS-B
Tue 12:54:22 AM 45.2940 -65.8870 55° Northeast 592 681 33,100  Level FlightAware ADS-B
Tue 12:55:03 AM 45.3560 -65.7600 55° Northeast 591 680 33,100  Level FlightAware ADS-B
Tue 12:55:47 AM 45.4260 -65.6170 55° Northeast 591 680 33,100  Level FlightAware ADS-B
Tue 12:56:29 AM 45.4920 -65.4830 55° Northeast 590 679 33,100  Level FlightAware ADS-B
Tue 12:57:12 AM 45.5590 -65.3440 55° Northeast 589 678 33,100  Level FlightAware ADS-B
Tue 12:57:53 AM 45.6210 -65.2160 55° Northeast 584 672 33,100  Level FlightAware ADS-B
Tue 12:58:37 AM 45.6880 -65.0770 55° Northeast 579 666 33,100  Level FlightAware ADS-B
Tue 12:59:17 AM 45.7490 -64.9510 55° Northeast 577 664 33,100  Level FlightAware ADS-B
Tue 01:00:01 AM 45.8130 -64.8140 56° Northeast 575 662 33,100  Level FlightAware ADS-B
Tue 01:00:42 AM 45.8760 -64.6810 56° Northeast 572 658 33,100  Level FlightAware ADS-B
Tue 01:01:21 AM 45.9250 -64.5770 56° Northeast 572 658 33,100  Level FlightAware ADS-B
Tue 01:01:58 AM 45.9720 -64.4770 56° Northeast 572 658 33,100  Level FlightAware ADS-B
Tue 01:02:58 AM 46.0680 -64.2720 56° Northeast 571 657 33,100  Level FlightAware ADS-B
Tue 01:03:46 AM 46.1280 -64.1430 56° Northeast 571 657 33,100  Level FlightAware ADS-B
Tue 01:04:22 AM 46.1730 -64.0460 56° Northeast 571 657 33,100  Level FlightAware ADS-B
Tue 01:04:59 AM 46.2200 -63.9460 56° Northeast 571 657 33,100  Level FlightAware ADS-B
Tue 01:05:49 AM 46.2830 -63.8120 56° Northeast 571 657 33,100  Level FlightAware ADS-B
Tue 01:06:25 AM 46.3280 -63.7150 56° Northeast 571 657 33,100  Level FlightAware ADS-B
Tue 01:07:13 AM 46.3880 -63.5850 56° Northeast 571 657 33,100  Level FlightAware ADS-B
Tue 01:07:49 AM 46.4330 -63.4880 56° Northeast 571 657 33,100  Level FlightAware ADS-B
Tue 01:08:37 AM 46.4940 -63.3580 56° Northeast 571 657 33,100  Level FlightAware ADS-B
Tue 01:10:13 AM 46.7020 -62.8630 58° Northeast 568 654 33,100  Level FlightAware ADS-B
Tue 01:11:25 AM 46.7970 -62.6460 57° Northeast 567 652 33,100  Level FlightAware ADS-B
Tue 01:12:02 AM 46.8420 -62.5450 57° Northeast 567 652 33,100  Level FlightAware ADS-B
Tue 01:12:47 AM 46.9200 -62.3650 58° Northeast 566 651 33,100  Level FlightAware ADS-B
Tue 01:13:45 AM 46.9950 -62.1910 58° Northeast 566 651 33,100  Level FlightAware ADS-B
Tue 01:14:25 AM 47.0560 -62.0490 58° Northeast 566 651 33,100  Level FlightAware ADS-B
Tue 01:15:35 AM 47.1550 -61.8160 58° Northeast 566 651 33,100  Level FlightAware ADS-B
Tue 01:16:33 AM 47.2360 -61.6270 58° Northeast 566 651 33,100  Level FlightAware ADS-B
Tue 01:17:13 AM 47.2890 -61.5010 58° Northeast 566 651 33,100  Level FlightAware ADS-B
Tue 01:17:59 AM 47.3530 -61.3470 58° Northeast 566 651 33,100  Level FlightAware ADS-B
Tue 01:18:39 AM 47.4080 -61.2160 58° Northeast 565 650 33,100  Level FlightAware ADS-B
Tue 01:19:23 AM 47.4670 -61.0710 59° Northeast 563 648 33,100  Level FlightAware ADS-B
Tue 01:20:00 AM 47.5130 -60.9620 58° Northeast 562 647 33,100  Level FlightAware ADS-B
Tue 01:20:41 AM 47.5610 -60.8480 58° Northeast 562 647 33,100  Level FlightAware ADS-B
Tue 01:21:42 AM 47.6320 -60.6780 58° Northeast 562 647 33,100  Level FlightAware ADS-B
Tue 01:22:18 AM 47.6750 -60.5780 57° Northeast 562 647 33,100  Level FlightAware ADS-B
Tue 01:23:06 AM 47.7310 -60.4450 58° Northeast 562 647 33,100  Level FlightAware ADS-B
Tue 01:23:42 AM 47.7730 -60.3440 58° Northeast 562 647 33,100  Level FlightAware ADS-B
Tue 01:24:28 AM 47.8270 -60.2160 58° Northeast 562 647 33,100  Level FlightAware ADS-B
Tue 01:25:04 AM 47.8690 -60.1150 58° Northeast 562 647 33,100  Level FlightAware ADS-B
Tue 01:25:51 AM 47.9240 -59.9840 58° Northeast 562 647 33,100  Level FlightAware ADS-B
Tue 01:26:29 AM 48.0240 -59.6830 63° Northeast 553 636 33,100  Level FlightAware ADS-B
Tue 01:27:13 AM 48.0820 -59.5320 60° Northeast 552 635 33,100  Level FlightAware ADS-B
Tue 01:27:58 AM 48.1390 -59.3870 59° Northeast 552 635 33,100  Level FlightAware ADS-B
Tue 01:28:43 AM 48.1970 -59.2350 60° Northeast 552 635 33,100  Level FlightAware ADS-B
Tue 01:29:33 AM 48.2570 -59.0800 60° Northeast 551 634 33,100  Level FlightAware ADS-B
Tue 01:30:19 AM 48.3180 -58.9170 61° Northeast 551 634 33,100  Level FlightAware ADS-B
Tue 01:30:58 AM 48.3680 -58.7860 60° Northeast 550 633 33,100  Level FlightAware ADS-B
Tue 01:31:43 AM 48.4240 -58.6370 60° Northeast 550 633 33,100  Level FlightAware ADS-B
Tue 01:32:28 AM 48.4810 -58.4870 60° Northeast 550 633 33,100  Level FlightAware ADS-B
Tue 01:33:03 AM 48.5240 -58.3710 61° Northeast 551 634 33,100  Level FlightAware ADS-B
Tue 01:33:48 AM 48.5800 -58.2200 61° Northeast 550 633 33,100  Level FlightAware ADS-B
Tue 01:34:29 AM 48.6300 -58.0830 61° Northeast 549 632 33,100  Level FlightAware ADS-B
Tue 01:35:13 AM 48.6800 -57.9480 61° Northeast 547 629 33,100  Level FlightAware ADS-B
Tue 01:35:53 AM 48.7340 -57.8010 61° Northeast 546 628 33,100  Level FlightAware ADS-B
Tue 01:36:34 AM 48.7820 -57.6680 61° Northeast 546 628 33,100  Level FlightAware ADS-B
Tue 01:37:18 AM 48.8330 -57.5150 63° Northeast 546 628 33,100  Level FlightAware ADS-B
Tue 01:37:59 AM 48.8780 -57.3780 63° Northeast 547 629 33,100  Level FlightAware ADS-B
Tue 01:38:43 AM 48.9290 -57.2200 64° Northeast 544 626 33,100  Level FlightAware ADS-B
Tue 01:39:23 AM 48.9720 -57.0890 63° Northeast 544 626 33,100  Level FlightAware ADS-B
Tue 01:40:05 AM 49.0180 -56.9460 64° Northeast 543 625 33,100  Level FlightAware ADS-B
Tue 01:40:49 AM 49.0680 -56.7930 63° Northeast 544 626 33,100  Level FlightAware ADS-B
Tue 01:41:28 AM 49.1120 -56.6560 64° Northeast 544 626 33,100  Level FlightAware ADS-B
Tue 01:42:14 AM 49.1630 -56.4960 64° Northeast 546 628 33,100  Level FlightAware ADS-B
Tue 01:42:54 AM 49.2070 -56.3580 64° Northeast 548 631 33,100  Level FlightAware ADS-B
Tue 01:43:39 AM 49.2560 -56.2010 64° Northeast 549 632 33,100  Level FlightAware ADS-B
Tue 01:44:19 AM 49.3000 -56.0610 64° Northeast 549 632 33,100  Level FlightAware ADS-B
Tue 01:45:04 AM 49.3500 -55.9030 64° Northeast 549 632 33,100  Level FlightAware ADS-B
Tue 01:45:58 AM 49.3770 -55.8160 64° Northeast 549 632 33,100  Level FlightAware ADS-B
Tue 01:46:39 AM 49.4530 -55.5680 65° Northeast 548 631 33,100  Level FlightAware ADS-B
Tue 01:47:19 AM 49.4960 -55.4280 65° Northeast 548 631 33,100  Level FlightAware ADS-B
Tue 01:47:58 AM 49.5390 -55.2880 65° Northeast 548 631 33,100  Level FlightAware ADS-B
Tue 01:48:43 AM 49.5870 -55.1270 65° Northeast 548 631 33,100  Level FlightAware ADS-B
Tue 01:49:23 AM 49.6300 -54.9860 65° Northeast 549 632 33,100  Level FlightAware ADS-B
Tue 01:50:03 AM 49.6730 -54.8450 65° Northeast 549 632 33,100  Level FlightAware ADS-B
Tue 01:50:48 AM 49.7210 -54.6840 65° Northeast 549 632 33,100  Level FlightAware ADS-B
Tue 01:51:28 AM 49.7630 -54.5400 66° East 550 633 33,100  Level FlightAware ADS-B
Tue 01:52:13 AM 49.8100 -54.3800 65° Northeast 550 633 33,100  Level FlightAware ADS-B
Tue 01:52:53 AM 49.8520 -54.2370 65° Northeast 550 633 33,100  Level FlightAware ADS-B
Tue 01:53:40 AM 49.8990 -54.0750 66° East 550 633 33,100  Level FlightAware ADS-B
Tue 01:54:20 AM 49.9400 -53.9320 66° East 550 633 33,100  Level FlightAware ADS-B
Tue 01:55:04 AM 49.9850 -53.7720 66° East 548 631 33,100  Level FlightAware ADS-B
Tue 01:55:44 AM 50.0270 -53.6240 66° East 549 632 33,100  Level FlightAware ADS-B
Tue 01:56:29 AM 50.0720 -53.4640 66° East 549 632 33,100  Level FlightAware ADS-B
Tue 01:57:09 AM 50.1130 -53.3170 66° East 549 632 33,100  Level FlightAware ADS-B
Tue 01:57:48 AM 50.1530 -53.1730 67° East 548 631 33,100  Level FlightAware ADS-B
Tue 01:58:34 AM 50.1980 -53.0100 67° East 549 632 33,100  Level FlightAware ADS-B
Tue 01:59:18 AM 50.2430 -52.8460 67° East 550 633 33,100  Level FlightAware ADS-B
Tue 02:00:08 AM 50.2930 -52.6650 67° East 549 632 33,100  Level FlightAware ADS-B
Tue 02:01:24 AM 50.3620 -52.4110 67° East 550 633 33,100  Level FlightAware ADS-B
Tue 02:02:12 AM 50.4020 -52.2610 67° East 550 633 33,100  Level FlightAware ADS-B
Tue 02:02:48 AM 50.4330 -52.1490 66° East 550 633 33,100  Level FlightAware ADS-B
Tue 02:03:36 AM 50.4730 -51.9990 67° East 550 633 33,100  Level FlightAware ADS-B
Tue 02:04:13 AM 50.5040 -51.8830 67° East 550 633 33,100  Level FlightAware ADS-B
Tue 02:05:01 AM 50.5450 -51.7320 67° East 550 633 33,100  Level FlightAware ADS-B
Tue 02:05:39 AM 50.5770 -51.6130 67° East 550 633 33,100  Level FlightAware ADS-B
Tue 02:06:16 AM 50.6080 -51.4970 67° East 550 633 33,100  Level FlightAware ADS-B
Tue 02:07:04 AM 50.6490 -51.3470 67° East 550 633 33,100  Level FlightAware ADS-B
Tue 02:07:40 AM 50.6790 -51.2330 67° East 550 633 33,100  Level FlightAware ADS-B
Tue 02:08:28 AM 50.7200 -51.0830 67° East 550 633 33,100  Level FlightAware ADS-B
Tue 02:09:04 AM 50.7500 -50.9690 67° East 550 633 33,100  Level FlightAware ADS-B
Tue 02:09:52 AM 50.7910 -50.8180 67° East 550 633 33,100  Level FlightAware ADS-B
Tue 02:10:28 AM 50.8210 -50.7050 67° East 550 633 33,100  Level FlightAware ADS-B
Tue 02:11:06 AM 50.9333 -50.1667 67° East 550 633 33,100  Level Gander Center
Tue 02:12:06 AM 50.9833 -49.9333 71° East 560 644 33,100  Level Gander Center
Tue 02:13:06 AM 51.0000 -49.6833 84° East 560 644 33,100 -53 Level Gander Center
Tue 02:14:00 AM 51.0000 -50.0000 77° East 553 636 33,000  Descending ETMS Enhanced Traffic Management System
Tue 02:14:24 AM 51.0333 -49.3667 77° East 570 656 33,100 128 Climbing Gander Center
Tue 02:14:47 AM 51.0333 -49.2833 90° East 570 656 33,100 -3 Level Gander Center
Tue 02:17:00 AM 51.0963 -48.9257 77° East  Level FlightAware Approximate
Tue 02:24:00 AM 51.3084 -47.3483 77° East  Level FlightAware Approximate
Tue 02:25:00 AM 51.3370 -47.1218 79° East  Level FlightAware Approximate
Tue 02:26:00 AM 51.3651 -46.8951 79° East  Level FlightAware Approximate
Tue 02:27:00 AM 51.3928 -46.6680 79° East  Level FlightAware Approximate
Tue 02:28:00 AM 51.4201 -46.4407 79° East  Level FlightAware Approximate
Tue 02:29:00 AM 51.4469 -46.2131 79° East  Level FlightAware Approximate
Tue 02:30:00 AM 51.4732 -45.9852 79° East  Level FlightAware Approximate
Tue 02:31:00 AM 51.4992 -45.7571 80° East  Level FlightAware Approximate
Tue 02:32:00 AM 51.5247 -45.5287 80° East  Level FlightAware Approximate
Tue 02:33:00 AM 51.5497 -45.3000 80° East  Level FlightAware Approximate
Tue 02:34:00 AM 51.5743 -45.0712 80° East  Level FlightAware Approximate
Tue 02:35:00 AM 51.5984 -44.8420 80° East  Level FlightAware Approximate
Tue 02:36:00 AM 51.6221 -44.6127 80° East  Level FlightAware Approximate
Tue 02:37:00 AM 51.6454 -44.3830 81° East  Level FlightAware Approximate
Tue 02:38:00 AM 51.6676 -44.1586 81° East  Level FlightAware Approximate
Tue 02:39:00 AM 51.6895 -43.9340 81° East  Level FlightAware Approximate
Tue 02:40:00 AM 51.7109 -43.7092 81° East  Level FlightAware Approximate
Tue 02:41:00 AM 51.7319 -43.4837 81° East  Level FlightAware Approximate
Tue 02:42:00 AM 51.7525 -43.2581 82° East  Level FlightAware Approximate
Tue 02:43:00 AM 51.7727 -43.0323 82° East  Level FlightAware Approximate
Tue 02:44:00 AM 51.7924 -42.8062 82° East  Level FlightAware Approximate
Tue 02:45:00 AM 51.8117 -42.5800 82° East  Level FlightAware Approximate
Tue 02:46:00 AM 51.8305 -42.3535 82° East  Level FlightAware Approximate
Tue 02:47:00 AM 51.8490 -42.1269 82° East  Level FlightAware Approximate
Tue 02:48:00 AM 51.8669 -41.9001 83° East  Level FlightAware Approximate
Tue 02:49:00 AM 51.8845 -41.6731 83° East  Level FlightAware Approximate
Tue 02:50:00 AM 51.9016 -41.4460 83° East  Level FlightAware Approximate
Tue 02:51:00 AM 51.9183 -41.2187 83° East  Level FlightAware Approximate
Tue 02:52:00 AM 51.9345 -40.9912 83° East  Level FlightAware Approximate
Tue 02:53:00 AM 51.9503 -40.7635 83° East  Level FlightAware Approximate
Tue 02:53:00 AM 52.0000 -40.0000 86° East 582 670 33,000  Level ETMS Enhanced Traffic Management System
Tue 02:54:00 AM 51.9657 -40.5357 84° East  Level FlightAware Approximate
Tue 02:55:00 AM 51.9806 -40.3077 84° East  Level FlightAware Approximate
Tue 02:56:00 AM 51.9950 -40.0796 84° East  Level FlightAware Approximate
Tue 02:57:00 AM 52.0062 -39.8510 86° East  Level FlightAware Approximate
Tue 02:58:00 AM 52.0154 -39.6220 86° East  Level FlightAware Approximate
Tue 02:59:00 AM 52.0704 -37.8978 88° East 582 670 33,000  Level FlightAware Transoceanic
Tue 03:00:00 AM 52.0766 -37.6346 88° East 582 670 33,000  Level FlightAware Transoceanic
Tue 03:01:00 AM 52.0821 -37.3713 88° East 582 670 33,000  Level FlightAware Transoceanic
Tue 03:02:00 AM 52.0871 -37.1080 88° East 582 670 33,000  Level FlightAware Transoceanic
Tue 03:03:00 AM 52.0915 -36.8446 89° East 582 670 33,000  Level FlightAware Transoceanic
Tue 03:04:00 AM 52.0953 -36.5812 89° East 582 670 33,000  Level FlightAware Transoceanic
Tue 03:05:00 AM 52.0986 -36.3177 89° East 582 670 33,000  Level FlightAware Transoceanic
Tue 03:06:00 AM 52.1012 -36.0542 89° East 582 670 33,000  Level FlightAware Transoceanic
Tue 03:07:00 AM 52.1033 -35.7907 89° East 582 670 33,000  Level FlightAware Transoceanic
Tue 03:08:00 AM 52.1048 -35.5271 90° East 582 670 33,000  Level FlightAware Transoceanic
Tue 03:09:00 AM 52.1056 -35.2636 90° East 582 670 33,000  Level FlightAware Transoceanic
Tue 03:10:00 AM 52.1059 -35.0000 90° East 582 670 33,000  Level FlightAware Transoceanic
Tue 03:11:00 AM 52.1056 -34.7364 90° East 582 670 33,000  Level FlightAware Transoceanic
Tue 03:12:00 AM 52.1048 -34.4729 90° East 582 670 33,000  Level FlightAware Transoceanic
Tue 03:13:00 AM 52.1033 -34.2093 91° East 582 670 33,000  Level FlightAware Transoceanic
Tue 03:14:00 AM 52.1012 -33.9458 91° East 582 670 33,000  Level FlightAware Transoceanic
Tue 03:15:00 AM 52.0986 -33.6823 91° East 582 670 33,000  Level FlightAware Transoceanic
Tue 03:16:00 AM 52.0953 -33.4188 91° East 582 670 33,000  Level FlightAware Transoceanic
Tue 03:17:00 AM 52.0915 -33.1554 91° East 582 670 33,000  Level FlightAware Transoceanic
Tue 03:18:00 AM 52.0871 -32.8920 92° East 582 670 33,000  Level FlightAware Transoceanic
Tue 03:19:00 AM 52.0821 -32.6287 92° East 582 670 33,000  Level FlightAware Transoceanic
Tue 03:20:00 AM 52.0766 -32.3654 92° East 582 670 33,000  Level FlightAware Transoceanic
Tue 03:21:00 AM 52.0704 -32.1022 92° East 582 670 33,000  Level FlightAware Transoceanic
Tue 03:22:00 AM 52.0636 -31.8391 92° East 582 670 33,000  Level FlightAware Transoceanic
Tue 03:23:00 AM 52.0563 -31.5761 93° East 582 670 33,000  Level FlightAware Transoceanic
Tue 03:24:00 AM 52.0484 -31.3131 93° East 582 670 33,000  Level FlightAware Transoceanic
Tue 03:25:00 AM 52.0399 -31.0503 93° East 582 670 33,000  Level FlightAware Transoceanic
Tue 03:26:00 AM 52.0308 -30.7875 93° East 582 670 33,000  Level FlightAware Transoceanic
Tue 03:27:00 AM 52.0211 -30.5249 94° East 582 670 33,000  Level FlightAware Transoceanic
Tue 03:28:00 AM 52.0108 -30.2624 94° East 582 670 33,000  Level FlightAware Transoceanic
Tue 03:29:00 AM 52.0014 -30.0335 94° East  Level FlightAware Approximate
Tue 03:30:00 AM 51.9915 -29.8047 94° East  Level FlightAware Approximate
Tue 03:31:00 AM 52.0068 -29.8381 86° East  Level FlightAware Approximate
Tue 03:32:00 AM 52.0159 -29.6091 86° East  Level FlightAware Approximate
Tue 03:32:00 AM 52.0000 -30.0000 86° East 540 621 33,000  Level ETMS Enhanced Traffic Management System
Tue 03:33:00 AM 52.0247 -29.3801 86° East  Level FlightAware Approximate
Tue 03:34:00 AM 52.0330 -29.1506 87° East  Level FlightAware Approximate
Tue 03:35:00 AM 52.0408 -28.9209 87° East  Level FlightAware Approximate
Tue 03:36:00 AM 52.0482 -28.6913 87° East  Level FlightAware Approximate
Tue 03:37:00 AM 52.0552 -28.4615 87° East  Level FlightAware Approximate
Tue 03:38:00 AM 52.0726 -27.8079 88° East 540 621 33,000  Level FlightAware Transoceanic
Tue 03:39:00 AM 52.0781 -27.5640 88° East 540 621 33,000  Level FlightAware Transoceanic
Tue 03:40:00 AM 52.0831 -27.3200 88° East 540 621 33,000  Level FlightAware Transoceanic
Tue 03:41:00 AM 52.0877 -27.0759 88° East 540 621 33,000  Level FlightAware Transoceanic
Tue 03:42:00 AM 52.0917 -26.8318 89° East 540 621 33,000  Level FlightAware Transoceanic
Tue 03:43:00 AM 52.0953 -26.5876 89° East 540 621 33,000  Level FlightAware Transoceanic
Tue 03:44:00 AM 52.0983 -26.3434 89° East 540 621 33,000  Level FlightAware Transoceanic
Tue 03:45:00 AM 52.1008 -26.0992 89° East 540 621 33,000  Level FlightAware Transoceanic
Tue 03:46:00 AM 52.1028 -25.8550 89° East 540 621 33,000  Level FlightAware Transoceanic
Tue 03:47:00 AM 52.1044 -25.6107 90° East 540 621 33,000  Level FlightAware Transoceanic
Tue 03:48:00 AM 52.1054 -25.3664 90° East 540 621 33,000  Level FlightAware Transoceanic
Tue 03:49:00 AM 52.1059 -25.1221 90° East 540 621 33,000  Level FlightAware Transoceanic
Tue 03:50:00 AM 52.1059 -24.8779 90° East 540 621 33,000  Level FlightAware Transoceanic
Tue 03:51:00 AM 52.1054 -24.6336 90° East 540 621 33,000  Level FlightAware Transoceanic
Tue 03:52:00 AM 52.1044 -24.3893 90° East 540 621 33,000  Level FlightAware Transoceanic
Tue 03:53:00 AM 52.1028 -24.1450 91° East 540 621 33,000  Level FlightAware Transoceanic
Tue 03:54:00 AM 52.1008 -23.9008 91° East 540 621 33,000  Level FlightAware Transoceanic
Tue 03:55:00 AM 52.0983 -23.6566 91° East 540 621 33,000  Level FlightAware Transoceanic
Tue 03:56:00 AM 52.0953 -23.4124 91° East 540 621 33,000  Level FlightAware Transoceanic
Tue 03:57:00 AM 52.0917 -23.1682 91° East 540 621 33,000  Level FlightAware Transoceanic
Tue 03:58:00 AM 52.0877 -22.9241 92° East 540 621 33,000  Level FlightAware Transoceanic
Tue 03:59:00 AM 52.0831 -22.6800 92° East 540 621 33,000  Level FlightAware Transoceanic
Tue 04:00:00 AM 52.0781 -22.4360 92° East 540 621 33,000  Level FlightAware Transoceanic
Tue 04:01:00 AM 52.0726 -22.1921 92° East 540 621 33,000  Level FlightAware Transoceanic
Tue 04:02:00 AM 52.0665 -21.9482 92° East 540 621 33,000  Level FlightAware Transoceanic
Tue 04:03:00 AM 52.0600 -21.7044 93° East 540 621 33,000  Level FlightAware Transoceanic
Tue 04:04:00 AM 52.0529 -21.4606 93° East 540 621 33,000  Level FlightAware Transoceanic
Tue 04:05:00 AM 52.0453 -21.2169 93° East 540 621 33,000  Level FlightAware Transoceanic
Tue 04:06:00 AM 52.0373 -20.9734 93° East 540 621 33,000  Level FlightAware Transoceanic
Tue 04:07:00 AM 52.0287 -20.7299 93° East 540 621 33,000  Level FlightAware Transoceanic
Tue 04:08:00 AM 52.0196 -20.4865 94° East 540 621 33,000  Level FlightAware Transoceanic
Tue 04:09:00 AM 52.0101 -20.2432 94° East 540 621 33,000 111 Level FlightAware Transoceanic
Tue 04:10:00 AM 52.0006 -20.0139 94° East  Level FlightAware Approximate
Tue 04:11:00 AM 51.9907 -19.7847 94° East  Level FlightAware Approximate
Tue 04:12:00 AM 52.0075 -19.7984 86° East  Level FlightAware Approximate
Tue 04:13:00 AM 52.0155 -19.5690 87° East  Level FlightAware Approximate
Tue 04:14:00 AM 52.0232 -19.3394 87° East  Level FlightAware Approximate
Tue 04:15:00 AM 52.0304 -19.1098 87° East  Level FlightAware Approximate
Tue 04:16:00 AM 52.0371 -18.8801 87° East  Level FlightAware Approximate
Tue 04:17:00 AM 52.0434 -18.6504 87° East  Level FlightAware Approximate
Tue 04:18:00 AM 52.0493 -18.4205 88° East  Level FlightAware Approximate
Tue 04:19:00 AM 52.0546 -18.1907 88° East  Level FlightAware Approximate
Tue 04:20:00 AM 52.0596 -17.9607 88° East  Level FlightAware Approximate
Tue 04:21:00 AM 52.0641 -17.7307 88° East  Level FlightAware Approximate
Tue 04:22:00 AM 52.0682 -17.5007 88° East  Level FlightAware Approximate
Tue 04:23:00 AM 52.0718 -17.2707 88° East  Level FlightAware Approximate
Tue 04:24:00 AM 52.0749 -17.0406 89° East  Level FlightAware Approximate
Tue 04:25:00 AM 52.0776 -16.8104 89° East  Level FlightAware Approximate
Tue 04:26:00 AM 52.0799 -16.5803 89° East  Level FlightAware Approximate
Tue 04:27:00 AM 52.0817 -16.3501 89° East  Level FlightAware Approximate
Tue 04:28:00 AM 52.0831 -16.1199 89° East  Level FlightAware Approximate
Tue 04:29:00 AM 52.0840 -15.8897 90° East  Level FlightAware Approximate
Tue 04:30:00 AM 52.0845 -15.6595 90° East  Level FlightAware Approximate
Tue 04:31:00 AM 52.0845 -15.4293 90° East  Level FlightAware Approximate
Tue 04:32:00 AM 52.0841 -15.1991 90° East  Level FlightAware Approximate
Tue 04:33:00 AM 52.0833 -14.9689 90° East  Level FlightAware Approximate
Tue 04:34:00 AM 52.0826 -14.7387 90° East  Level FlightAware Approximate
Tue 04:35:00 AM 52.0814 -14.5085 90° East  Level FlightAware Approximate
Tue 04:36:00 AM 52.0798 -14.2783 91° East  Level FlightAware Approximate
Tue 04:37:00 AM 52.0777 -14.0486 91° East  Level FlightAware Approximate
Tue 04:38:00 AM 52.0752 -13.8188 91° East  Level FlightAware Approximate
Tue 04:39:00 AM 52.0723 -13.5891 91° East  Level FlightAware Approximate
Tue 04:40:00 AM 52.0689 -13.3594 91° East  Level FlightAware Approximate
Tue 04:41:00 AM 52.0650 -13.1298 91° East  Level FlightAware Approximate
Tue 04:42:00 AM 52.0607 -12.9002 92° East  Level FlightAware Approximate
Tue 04:43:00 AM 52.0560 -12.6706 92° East  Level FlightAware Approximate
Tue 04:44:00 AM 52.0508 -12.4411 92° East  Level FlightAware Approximate
Tue 04:45:00 AM 52.0452 -12.2117 92° East  Level FlightAware Approximate
Tue 04:45:01 AM 51.8550 -12.4670 92° East 491 565 37,100  Level FlightAware ADS-B
Tue 04:45:57 AM 51.8560 -12.3030 89° East 492 566 37,100  Level FlightAware ADS-B
Tue 04:46:00 AM 52.0391 -11.9823 92° East  Level FlightAware Approximate
Tue 04:46:57 AM 51.8560 -12.0550 90° East 492 566 37,100  Level FlightAware ADS-B
Tue 04:47:36 AM 51.8560 -11.8900 90° East 493 567 37,100  Level FlightAware ADS-B
Tue 04:48:16 AM 51.8560 -11.7390 90° East 493 567 37,100  Level FlightAware ADS-B
Tue 04:49:01 AM 51.8560 -11.5750 90° East 493 567 37,100  Level FlightAware ADS-B
Tue 04:50:23 AM 51.8560 -11.2920 90° East 493 567 37,100  Level FlightAware ADS-B
Tue 04:51:01 AM 51.8560 -11.1360 90° East 492 566 37,100  Level FlightAware ADS-B
Tue 04:51:44 AM 51.8550 -10.9810 91° East 492 566 37,100  Level FlightAware ADS-B
Tue 04:52:23 AM 51.8550 -10.8380 90° East 492 566 37,100  Level FlightAware ADS-B
Tue 04:53:08 AM 51.8540 -10.6810 91° East 492 566 37,100  Level FlightAware ADS-B
Tue 04:53:55 AM 51.8530 -10.5170 91° East 492 566 37,100  Level FlightAware ADS-B
Tue 04:54:35 AM 51.8520 -10.3530 91° East 493 567 37,100  Level FlightAware ADS-B
Tue 04:55:16 AM 51.8510 -10.2150 91° East 492 566 37,100  Level FlightAware ADS-B
Tue 04:56:00 AM 51.8490 -10.0360 91° East 492 566 37,100  Level FlightAware ADS-B
Tue 04:56:41 AM 51.8470 -9.8920 91° East 493 567 37,100  Level FlightAware ADS-B
Tue 04:57:21 AM 51.8450 -9.7410 91° East 493 567 37,100  Level FlightAware ADS-B
Tue 04:58:05 AM 51.8430 -9.5770 91° East 493 567 37,100  Level FlightAware ADS-B
Tue 04:58:49 AM 51.8400 -9.4090 92° East 494 568 37,100  Level FlightAware ADS-B
Tue 04:59:31 AM 51.8380 -9.2650 91° East 494 568 37,100  Level FlightAware ADS-B
Tue 05:00:10 AM 51.8350 -9.1180 92° East 494 568 37,100 -98 Level FlightAware ADS-B
Tue 05:00:32 AM 51.8527 -8.9863 92° East 492 566 37,000 -150 Descending FlightAware UK
Tue 05:00:50 AM 51.8513 -8.9199 92° East 490 564 37,000 171 Level FlightAware UK
Tue 05:01:07 AM 51.8310 -8.9060 92° East 495 570 37,100  Climbing FlightAware ADS-B
Tue 05:01:08 AM 51.8499 -8.8534 92° East 488 562 37,000 -316 Descending FlightAware UK
Tue 05:01:26 AM 51.8485 -8.7872 92° East 488 562 37,000  Level FlightAware UK
Tue 05:01:44 AM 51.8473 -8.7208 92° East 488 562 37,000 286 Level FlightAware UK
Tue 05:01:47 AM 51.8280 -8.7630 92° East 496 571 37,100  Climbing FlightAware ADS-B
Tue 05:02:02 AM 51.8457 -8.6543 92° East 488 562 37,000 -182 Descending FlightAware UK
Tue 05:02:20 AM 51.8442 -8.5878 92° East 488 562 37,000 240 Level FlightAware UK
Tue 05:02:27 AM 51.8250 -8.6180 92° East 497 572 37,100  Climbing FlightAware ADS-B
Tue 05:02:44 AM 51.8422 -8.4991 92° East 488 562 37,000 -171 Descending FlightAware UK
Tue 05:03:02 AM 51.8405 -8.4323 92° East 488 562 37,000 214 Level FlightAware UK
Tue 05:03:12 AM 51.8210 -8.4490 92° East 498 573 37,100  Climbing FlightAware ADS-B
Tue 05:03:32 AM 51.8377 -8.3209 92° East 494 568 37,000 -158 Descending FlightAware UK
Tue 05:03:50 AM 51.8360 -8.2533 92° East 496 571 37,000 300 Level FlightAware UK
Tue 05:03:52 AM 51.8170 -8.2940 92° East 498 573 37,100  Climbing FlightAware ADS-B
Tue 05:04:08 AM 51.8346 -8.1865 92° East 496 571 37,000 -176 Descending FlightAware UK
Tue 05:04:26 AM 51.8329 -8.1194 92° East 494 568 37,000 207 Level FlightAware UK
Tue 05:04:37 AM 51.8130 -8.1260 92° East 497 572 37,100  Climbing FlightAware ADS-B
Tue 05:04:56 AM 51.8300 -8.0075 92° East 494 568 37,000 -162 Descending FlightAware UK
Tue 05:05:14 AM 51.8279 -7.9408 93° East 492 566 37,000 231 Level FlightAware UK
Tue 05:05:22 AM 51.8080 -7.9650 93° East 497 572 37,100  Climbing FlightAware ADS-B
Tue 05:05:38 AM 51.8251 -7.8520 93° East 496 571 37,000 -176 Descending FlightAware UK
Tue 05:05:56 AM 51.8230 -7.7855 93° East 494 568 37,000 316 Level FlightAware UK
Tue 05:05:57 AM 51.8050 -7.8300 93° East 496 571 37,100  Climbing FlightAware ADS-B
Tue 05:06:14 AM 51.8211 -7.7192 93° East 496 571 37,000 -171 Descending FlightAware UK
Tue 05:06:32 AM 51.8192 -7.6529 93° East 496 571 37,000 214 Level FlightAware UK
Tue 05:06:42 AM 51.8000 -7.6780 93° East 494 568 37,100  Climbing FlightAware ADS-B
Tue 05:07:02 AM 51.8157 -7.5427 93° East 496 571 37,000 -158 Descending FlightAware UK
Tue 05:07:20 AM 51.8137 -7.4768 93° East 494 568 37,000 240 Level FlightAware UK
Tue 05:07:27 AM 51.7950 -7.5020 93° East 491 565 37,100  Climbing FlightAware ADS-B
Tue 05:07:44 AM 51.8113 -7.3891 93° East 492 566 37,000 -171 Descending FlightAware UK
Tue 05:08:02 AM 51.8094 -7.3237 93° East 490 564 37,000 250 Level FlightAware UK
Tue 05:08:08 AM 51.7900 -7.3540 93° East 489 563 37,100  Climbing FlightAware ADS-B
Tue 05:08:26 AM 51.8068 -7.2365 93° East 492 566 37,000 -167 Descending FlightAware UK
Tue 05:08:44 AM 51.8045 -7.1713 93° East 492 566 37,000 240 Level FlightAware UK
Tue 05:08:51 AM 51.7850 -7.1900 93° East 488 562 37,100  Climbing FlightAware ADS-B
Tue 05:09:09 AM 51.8016 -7.0835 93° East 492 566 37,000 -167 Descending FlightAware UK
Tue 05:09:27 AM 51.7993 -7.0183 93° East 492 566 37,000 273 Level FlightAware UK
Tue 05:09:31 AM 51.7800 -7.0460 93° East 487 560 37,100  Climbing FlightAware ADS-B
Tue 05:09:51 AM 51.7962 -6.9315 93° East 492 566 37,000 -158 Descending FlightAware UK
Tue 05:10:09 AM 51.7937 -6.8664 93° East 494 568 37,000 300 Level FlightAware UK
Tue 05:10:11 AM 51.7750 -6.9010 93° East 486 559 37,100  Climbing FlightAware ADS-B
Tue 05:10:27 AM 51.7913 -6.8014 93° East 494 568 37,000 -176 Descending FlightAware UK
Tue 05:10:45 AM 51.7889 -6.7365 93° East 492 566 37,000 214 Level FlightAware UK
Tue 05:10:55 AM 51.7690 -6.7410 93° East 486 559 37,100  Climbing FlightAware ADS-B
Tue 05:11:15 AM 51.7853 -6.6282 93° East 492 566 37,000 -158 Descending FlightAware UK
Tue 05:11:33 AM 51.7834 -6.5634 93° East 492 566 37,000 273 Level FlightAware UK
Tue 05:11:37 AM 51.7640 -6.5880 93° East 485 558 37,100  Climbing FlightAware ADS-B
Tue 05:11:57 AM 51.7807 -6.4768 93° East 494 568 37,000 -158 Descending FlightAware UK
Tue 05:12:15 AM 51.7786 -6.4119 93° East 494 568 37,000 250 Level FlightAware UK
Tue 05:12:21 AM 51.7590 -6.4290 93° East 485 558 37,100  Climbing FlightAware ADS-B
Tue 05:12:39 AM 51.7756 -6.3254 93° East 490 564 37,000 -167 Descending FlightAware UK
Tue 05:12:57 AM 51.7730 -6.2606 94° East 494 568 37,000 250 Level FlightAware UK
Tue 05:13:03 AM 51.7530 -6.2780 94° East 484 557 37,100  Climbing FlightAware ADS-B
Tue 05:13:21 AM 51.7696 -6.1744 94° East 492 566 37,000 -167 Descending FlightAware UK
Tue 05:13:39 AM 51.7668 -6.1099 94° East 490 564 37,000 273 Level FlightAware UK
Tue 05:13:43 AM 51.7480 -6.1360 94° East 485 558 37,100  Climbing FlightAware ADS-B
Tue 05:14:21 AM 51.7603 -5.9592 94° East 492 566 37,000  Descending FlightAware UK
Tue 05:14:27 AM 51.7410 -5.9740 94° East 486 559 37,100  Climbing FlightAware ADS-B
Tue 05:14:45 AM 51.7564 -5.8721 94° East 492 566 37,000 -167 Descending FlightAware UK
Tue 05:15:03 AM 51.7535 -5.8072 94° East 492 566 37,000 333 Level FlightAware UK
Tue 05:15:03 AM 51.7350 -5.8490 94° East 486 559 37,100  Climbing FlightAware ADS-B
Tue 05:15:21 AM 51.7507 -5.7423 94° East 492 566 37,000 -167 Descending FlightAware UK
Tue 05:15:39 AM 51.7479 -5.6775 94° East 492 566 37,000 214 Level FlightAware UK
Tue 05:15:49 AM 51.7290 -5.6820 94° East 485 558 37,100  Climbing FlightAware ADS-B
Tue 05:16:09 AM 51.7432 -5.5695 94° East 494 568 37,000 -158 Descending FlightAware UK
Tue 05:16:27 AM 51.7404 -5.5048 94° East 494 568 37,000 250 Level FlightAware UK
Tue 05:16:33 AM 51.7220 -5.5210 94° East 484 557 37,100  Climbing FlightAware ADS-B
Tue 05:16:57 AM 51.7358 -5.3971 94° East 492 566 37,000  Descending FlightAware UK
Tue 05:17:09 AM 51.7160 -5.3900 94° East 484 557 37,100  Climbing FlightAware ADS-B
Tue 05:17:15 AM 51.7328 -5.3326 94° East 490 564 37,000 -333 Descending FlightAware UK
Tue 05:17:27 AM 51.7307 -5.2896 94° East 490 564 37,000  Level FlightAware UK
Tue 05:17:45 AM 51.7277 -5.2250 94° East 492 566 37,000 200 Level FlightAware UK
Tue 05:17:57 AM 51.7080 -5.2200 94° East 485 558 37,100  Climbing FlightAware ADS-B
Tue 05:18:27 AM 51.7209 -5.0736 94° East 488 562 37,000  Descending FlightAware UK
Tue 05:18:37 AM 51.7020 -5.0760 94° East 486 559 37,100  Climbing FlightAware ADS-B
Tue 05:18:57 AM 51.7158 -4.9664 94° East 490 564 37,000  Descending FlightAware UK
Tue 05:19:19 AM 51.6950 -4.9240 94° East 487 560 37,100  Climbing FlightAware ADS-B
Tue 05:19:21 AM 51.7118 -4.8793 94° East 496 571 37,000  Descending FlightAware UK
Tue 05:20:01 AM 51.6880 -4.7700 94° East 486 559 37,100  Climbing FlightAware ADS-B
Tue 05:20:33 AM 51.6993 -4.6200 94° East 494 568 37,000  Descending FlightAware UK
Tue 05:20:43 AM 51.6810 -4.6260 94° East 485 558 37,100  Climbing FlightAware ADS-B
Tue 05:21:15 AM 51.6924 -4.4693 94° East 492 566 37,000  Descending FlightAware UK
Tue 05:21:24 AM 51.6740 -4.4780 94° East 484 557 37,100  Climbing FlightAware ADS-B
Tue 05:21:39 AM 51.6884 -4.3832 94° East 492 566 37,000 -182 Descending FlightAware UK
Tue 05:21:57 AM 51.6854 -4.3180 94° East 490 564 37,000 231 Level FlightAware UK
Tue 05:22:05 AM 51.6680 -4.3330 94° East 484 557 37,100  Climbing FlightAware ADS-B
Tue 05:22:21 AM 51.6810 -4.2319 94° East 490 564 37,000 -176 Descending FlightAware UK
Tue 05:22:39 AM 51.6777 -4.1673 95° East 490 564 37,000 200 Level FlightAware UK
Tue 05:22:51 AM 51.6590 -4.1610 95° East 484 557 37,100  Climbing FlightAware ADS-B
Tue 05:23:15 AM 51.6706 -4.0382 95° East 490 564 37,000  Descending FlightAware UK
Tue 05:23:31 AM 51.6510 -4.0180 95° East 484 557 37,100  Climbing FlightAware ADS-B
Tue 05:23:33 AM 51.6671 -3.9736 95° East 492 566 37,000  Descending FlightAware UK
Tue 05:24:13 AM 51.6430 -3.8670 95° East 484 557 37,100 98 Climbing FlightAware ADS-B
Tue 05:24:34 AM 51.6388 -3.7898 95° East 485 558 37,100  Level FlightAware ADS-B
Tue 05:25:08 AM 51.6317 -3.6690 95° East 484 557 37,100  Level FlightAware ADS-B
Tue 05:25:39 AM 51.6253 -3.5577 95° East 485 558 37,100 -107 Level FlightAware ADS-B
Tue 05:26:04 AM 51.6353 -3.4349 95° East 500 575 37,000  Descending FlightAware UK
Tue 05:26:13 AM 51.6176 -3.4368 95° East 484 557 37,100  Climbing FlightAware ADS-B
Tue 05:26:34 AM 51.6283 -3.3278 95° East 496 571 37,000  Descending FlightAware UK
Tue 05:26:43 AM 51.6107 -3.3273 95° East 480 552 37,100  Climbing FlightAware ADS-B
Tue 05:26:58 AM 51.6224 -3.2428 95° East 494 568 37,000  Descending FlightAware UK
Tue 05:27:15 AM 51.6033 -3.2152 95° East 478 550 37,100 118 Climbing FlightAware ADS-B
Tue 05:27:49 AM 51.5955 -3.0971 96° East 478 550 37,100  Level FlightAware ADS-B
Tue 05:28:29 AM 51.5863 -2.9551 96° East 478 550 37,100 -95 Level FlightAware ADS-B
Tue 05:28:52 AM 51.5955 -2.8409 96° East 488 562 37,000  Descending FlightAware UK
Tue 05:28:59 AM 51.5790 -2.8488 96° East 478 550 37,100 162 Climbing FlightAware ADS-B
Tue 05:29:29 AM 51.5719 -2.7414 96° East 478 550 37,100 -128 Level FlightAware ADS-B
Tue 05:29:46 AM 51.5825 -2.6508 96° East 486 559 37,000  Descending FlightAware UK
Tue 05:30:00 AM 51.5648 -2.6353 96° East 479 551 37,100  Climbing FlightAware ADS-B
Tue 05:30:22 AM 51.5736 -2.5231 96° East 488 562 37,000  Descending FlightAware UK
Tue 05:30:32 AM 51.5569 -2.5194 96° East 480 552 37,100 125 Climbing FlightAware ADS-B
Tue 05:31:10 AM 51.5474 -2.3847 96° East 480 552 37,100 -107 Level FlightAware ADS-B
Tue 05:31:28 AM 51.5571 -2.2891 96° East 486 559 37,000  Descending FlightAware UK
Tue 05:31:41 AM 51.5399 -2.2768 96° East 481 554 37,100 130 Climbing FlightAware ADS-B
Tue 05:32:14 AM 51.5315 -2.1594 97° East 482 555 37,100  Level FlightAware ADS-B
Tue 05:32:45 AM 51.5238 -2.0509 96° East 483 556 37,100 -118 Level FlightAware ADS-B
Tue 05:33:05 AM 51.5320 -1.9470 96° East 486 559 37,000  Descending FlightAware UK
Tue 05:33:15 AM 51.5159 -1.9434 96° East 484 557 37,100  Climbing FlightAware ADS-B
Tue 05:33:35 AM 51.5239 -1.8401 96° East 486 559 37,000  Descending FlightAware UK
Tue 05:33:46 AM 51.5075 -1.8310 96° East 485 558 37,100  Climbing FlightAware ADS-B
Tue 05:34:05 AM 51.5156 -1.7330 96° East 488 562 37,000  Descending FlightAware UK
Tue 05:34:16 AM 51.4994 -1.7237 96° East 486 559 37,100 143 Climbing FlightAware ADS-B
Tue 05:34:47 AM 51.4910 -1.6156 97° East 487 560 37,100  Level FlightAware ADS-B
Tue 05:35:20 AM 51.4817 -1.4961 97° East 488 562 37,100  Level FlightAware ADS-B
Tue 05:35:50 AM 51.4733 -1.3882 97° East 487 560 37,100 -133 Level FlightAware ADS-B
Tue 05:36:05 AM 51.4815 -1.3021 97° East 488 562 37,000  Descending FlightAware UK
Tue 05:36:21 AM 51.4645 -1.2788 97° East 487 560 37,100 128 Climbing FlightAware ADS-B
Tue 05:36:52 AM 51.4554 -1.1654 97° East 487 560 37,100 -107 Level FlightAware ADS-B
Tue 05:37:17 AM 51.4600 -1.0436 97° East 488 562 37,000  Descending FlightAware UK
Tue 05:37:23 AM 51.4461 -1.0545 97° East 488 562 37,100 162 Climbing FlightAware ADS-B
Tue 05:37:54 AM 51.4369 -0.9437 98° East 487 560 37,100  Level FlightAware ADS-B
Tue 05:38:26 AM 51.4275 -0.8308 98° East 487 560 37,100  Level FlightAware ADS-B
Tue 05:38:58 AM 51.4178 -0.7180 98° East 487 560 37,100  Level FlightAware ADS-B
Tue 05:39:28 AM 51.4086 -0.6104 98° East 487 560 37,100  Level FlightAware ADS-B
Tue 05:40:02 AM 51.3979 -0.4893 98° East 486 559 37,100  Level FlightAware ADS-B
Tue 05:40:32 AM 51.3887 -0.3807 98° East 486 559 37,100  Level FlightAware ADS-B
Tue 05:41:05 AM 51.3787 -0.2640 98° East 486 559 37,100  Level FlightAware ADS-B
Tue 05:41:37 AM 51.3691 -0.1499 98° East 486 559 37,100  Level FlightAware ADS-B
Tue 05:42:09 AM 51.3591 -0.0362 98° East 487 560 37,100 -128 Level FlightAware ADS-B
Tue 05:42:24 AM 51.3649 0.0500 98° East 486 559 37,000  Descending FlightAware UK
Tue 05:42:47 AM 51.3473 0.0978 98° East 487 560 37,100 111 Climbing FlightAware ADS-B
Tue 05:43:18 AM 51.3373 0.2076 98° East 487 560 37,100  Level FlightAware ADS-B
Tue 05:43:48 AM 51.3272 0.3146 99° East 487 560 37,100  Level FlightAware ADS-B
Tue 05:44:20 AM 51.3162 0.4309 99° East 488 562 37,100 -125 Level FlightAware ADS-B
Tue 05:44:36 AM 51.3204 0.5221 99° East 486 559 37,000  Descending FlightAware UK
Tue 05:44:51 AM 51.3059 0.5407 99° East 488 562 37,100  Climbing FlightAware ADS-B
Tue 05:45:06 AM 51.3102 0.6292 99° East 488 562 37,000  Descending FlightAware UK
Tue 05:45:23 AM 51.2951 0.6532 99° East 490 564 37,100 128 Climbing FlightAware ADS-B
Tue 05:45:53 AM 51.2846 0.7610 99° East 490 564 37,100 -122 Level FlightAware ADS-B
Tue 05:46:12 AM 51.2868 0.8659 99° East 488 562 37,000  Descending FlightAware UK
Tue 05:46:28 AM 51.2724 0.8861 99° East 491 565 37,100 128 Climbing FlightAware ADS-B
Tue 05:46:59 AM 51.2616 0.9952 99° East 491 565 37,100  Level FlightAware ADS-B
Tue 05:47:29 AM 51.2512 1.1024 99° East 491 565 37,100 -107 Level FlightAware ADS-B
Tue 05:47:55 AM 51.2504 1.2325 99° East 488 562 37,000 -136 Descending FlightAware UK
Tue 05:48:13 AM 51.2440 1.2962 99° East 488 562 37,000 176 Level FlightAware UK
Tue 05:48:29 AM 51.2300 1.3120 99° East 491 565 37,100  Climbing FlightAware ADS-B
Tue 05:48:49 AM 51.2307 1.4256 99° East 488 562 37,000 -136 Descending FlightAware UK
Tue 05:49:13 AM 51.2219 1.5114 99° East 488 562 37,000 250 Level FlightAware UK
Tue 05:49:13 AM 51.2140 1.4680 99° East 491 565 37,100  Climbing FlightAware ADS-B
Tue 05:49:31 AM 51.2152 1.5758 99° East 488 562 37,000 -167 Descending FlightAware UK
Tue 05:49:49 AM 51.2086 1.6401 99° East 488 562 37,000 273 Level FlightAware UK
Tue 05:49:53 AM 51.1990 1.6130 99° East 490 564 37,100  Climbing FlightAware ADS-B
Tue 05:50:13 AM 51.1994 1.7264 99° East 488 562 37,000 -158 Descending FlightAware UK
Tue 05:50:31 AM 51.1927 1.7899 99° East 488 562 37,000 286 Level FlightAware UK
Tue 05:50:34 AM 51.1840 1.7580 99° East 490 564 37,100  Climbing FlightAware ADS-B
Tue 05:50:49 AM 51.1859 1.8549 99° East 488 562 37,000  Descending FlightAware UK
Tue 05:51:11 AM 51.1700 1.8900 99° East 489 563 37,100  Climbing FlightAware ADS-B
Tue 05:51:31 AM 51.1695 2.0044 99° East 488 562 37,000 -158 Descending FlightAware UK
Tue 05:51:49 AM 51.1625 2.0685 100° East 486 559 37,000 231 Level FlightAware UK
Tue 05:51:57 AM 51.1530 2.0530 100° East 490 564 37,100  Climbing FlightAware ADS-B
Tue 05:52:19 AM 51.1507 2.1759 100° East 488 562 37,000  Descending FlightAware UK
Tue 05:52:43 AM 51.1350 2.2180 100° East 490 564 37,100  Climbing FlightAware ADS-B
Tue 05:53:13 AM 51.1293 2.3680 100° East 486 559 37,000  Descending FlightAware UK
Tue 05:53:20 AM 51.1210 2.3420 100° East 490 564 37,100 130 Climbing FlightAware ADS-B
Tue 05:53:59 AM 51.1042 2.4899 100° East 492 566 37,100  Level FlightAware ADS-B
Tue 05:54:45 AM 51.0850 2.6430 101° East 491 565 37,100  Level FlightAware ADS-B
Tue 05:55:44 AM 51.0470 2.8570 106° East 492 566 37,100 -79 Level FlightAware ADS-B
Tue 05:56:01 AM 51.0417 2.9598 106° East 488 562 37,000 -171 Descending FlightAware UK
Tue 05:56:19 AM 51.0300 3.0222 106° East 488 562 37,000 240 Level FlightAware UK
Tue 05:56:26 AM 51.0200 3.0010 106° East 491 565 37,100  Climbing FlightAware ADS-B
Tue 05:56:49 AM 51.0106 3.1262 106° East 490 564 37,000  Descending FlightAware UK
Tue 05:57:06 AM 50.9940 3.1440 106° East 491 565 37,100  Climbing FlightAware ADS-B
Tue 05:57:25 AM 50.9872 3.2518 106° East 490 564 37,000  Descending FlightAware UK
Tue 05:57:48 AM 50.9680 3.2840 106° East 492 566 37,100 94 Climbing FlightAware ADS-B
Tue 05:58:29 AM 50.9430 3.4170 106° East 491 565 37,100 -140 Level FlightAware ADS-B
Tue 05:58:31 AM 50.9447 3.4806 106° East 490 564 37,000  Descending FlightAware UK
Tue 05:59:16 AM 50.9110 3.5870 107° East 490 564 37,100 76 Climbing FlightAware ADS-B
Tue 05:59:50 AM 50.8890 3.7010 107° East 490 564 37,100 -87 Level FlightAware ADS-B
Tue 06:00:25 AM 50.8687 3.8732 107° East 490 564 37,000  Descending FlightAware UK
Tue 06:00:39 AM 50.8550 3.8720 107° East 489 563 37,100  Climbing FlightAware ADS-B
Tue 06:01:07 AM 50.8406 4.0175 107° East 490 564 37,000  Descending FlightAware UK
Tue 06:01:19 AM 50.8280 4.0110 107° East 489 563 37,100  Climbing FlightAware ADS-B
Tue 06:01:55 AM 50.8079 4.1814 107° East 490 564 37,000  Descending FlightAware UK
Tue 06:02:03 AM 50.7990 4.1600 107° East 489 563 37,100  Climbing FlightAware ADS-B
Tue 06:02:19 AM 50.7915 4.2632 107° East 490 564 37,000 -171 Descending FlightAware UK
Tue 06:02:38 AM 50.7792 4.3253 107° East 488 562 37,000 250 Level FlightAware UK
Tue 06:02:43 AM 50.7720 4.2940 107° East 488 562 37,100  Climbing FlightAware ADS-B
Tue 06:03:14 AM 50.7547 4.4478 107° East 488 562 37,000  Descending FlightAware UK
Tue 06:03:27 AM 50.7430 4.4440 107° East 487 560 37,100  Climbing FlightAware ADS-B
Tue 06:03:44 AM 50.7347 4.5500 107° East 490 564 37,000  Descending FlightAware UK
Tue 06:04:14 AM 50.7102 4.6062 107° East 487 560 37,100 94 Climbing FlightAware ADS-B
Tue 06:04:48 AM 50.6900 4.7110 107° East 483 556 37,100  Level FlightAware ADS-B
Tue 06:05:06 AM 50.6769 4.7808 106° East 486 559 37,100  Level FlightAware ADS-B
Tue 06:05:40 AM 50.6570 4.8640 111° Southeast 486 559 37,100  Level FlightAware ADS-B
Tue 06:05:59 AM 50.6277 4.9519 118° Southeast 487 560 37,100  Level FlightAware ADS-B
Tue 06:06:31 AM 50.5856 5.0469 125° Southeast 489 563 37,100  Level FlightAware ADS-B
Tue 06:07:03 AM 50.5436 5.1384 126° Southeast 489 563 37,100  Level FlightAware ADS-B
Tue 06:07:56 AM 50.4736 5.2891 126° Southeast 489 563 37,100  Level FlightAware ADS-B
Tue 06:08:39 AM 50.4170 5.4110 126° Southeast 489 563 37,100  Level FlightAware ADS-B
Tue 06:09:27 AM 50.3550 5.5460 126° Southeast 487 560 37,100  Level FlightAware ADS-B
Tue 06:10:07 AM 50.3030 5.6640 125° Southeast 487 560 37,100  Level FlightAware ADS-B
Tue 06:10:48 AM 50.2500 5.7860 124° Southeast 487 560 37,100  Level FlightAware ADS-B
Tue 06:11:34 AM 50.1910 5.9170 125° Southeast 486 559 37,100  Level FlightAware ADS-B
Tue 06:12:13 AM 50.1410 6.0280 125° Southeast 485 558 37,100  Level FlightAware ADS-B
Tue 06:12:55 AM 50.0880 6.1430 126° Southeast 486 559 37,100  Level FlightAware ADS-B
Tue 06:13:39 AM 50.0300 6.2700 125° Southeast 486 559 37,100  Level FlightAware ADS-B
Tue 06:14:44 AM 49.9460 6.4530 125° Southeast 481 554 37,100  Level FlightAware ADS-B
Tue 06:15:29 AM 49.8880 6.5810 125° Southeast 481 554 37,100  Level FlightAware ADS-B
Tue 06:16:09 AM 49.8330 6.6940 127° Southeast 488 562 37,100  Level FlightAware ADS-B
Tue 06:16:53 AM 49.7680 6.8150 130° Southeast 483 556 37,100  Level FlightAware ADS-B
Tue 06:17:38 AM 49.7030 6.9360 130° Southeast 488 562 37,100  Level FlightAware ADS-B
Tue 06:18:18 AM 49.6480 7.0420 129° Southeast 488 562 37,100  Level FlightAware ADS-B
Tue 06:18:58 AM 49.5910 7.1500 129° Southeast 488 562 37,100  Level FlightAware ADS-B
Tue 06:19:43 AM 49.5270 7.2700 129° Southeast 487 560 37,100  Level FlightAware ADS-B
Tue 06:20:18 AM 49.4770 7.3660 129° Southeast 488 562 37,100  Level FlightAware ADS-B
Tue 06:21:13 AM 49.3980 7.5130 130° Southeast 483 556 37,100  Level FlightAware ADS-B
Tue 06:21:58 AM 49.3330 7.6330 130° Southeast 485 558 37,100  Level FlightAware ADS-B
Tue 06:22:38 AM 49.2760 7.7380 130° Southeast 484 557 37,100  Level FlightAware ADS-B
Tue 06:23:18 AM 49.2170 7.8450 130° Southeast 484 557 37,100  Level FlightAware ADS-B
Tue 06:24:04 AM 49.1510 7.9660 130° Southeast 483 556 37,100  Level FlightAware ADS-B
Tue 06:24:44 AM 49.0940 8.0690 130° Southeast 481 554 37,100  Level FlightAware ADS-B
Tue 06:25:22 AM 49.0380 8.1700 130° Southeast 481 554 37,100  Level FlightAware ADS-B
Tue 06:26:06 AM 48.9770 8.2780 131° Southeast 487 560 37,100  Level FlightAware ADS-B
Tue 06:27:05 AM 48.8820 8.4320 133° Southeast 485 558 37,100  Level FlightAware ADS-B
Tue 06:27:44 AM 48.8230 8.5250 134° Southeast 484 557 37,100  Level FlightAware ADS-B
Tue 06:28:29 AM 48.7540 8.6340 134° Southeast 482 555 37,100  Level FlightAware ADS-B
Tue 06:29:09 AM 48.6940 8.7280 134° Southeast 480 552 37,100  Level FlightAware ADS-B
Tue 06:29:49 AM 48.6320 8.8270 133° Southeast 479 551 37,100  Level FlightAware ADS-B
Tue 06:30:14 AM 48.5910 8.8910 134° Southeast 478 550 37,100  Level FlightAware ADS-B
Tue 06:30:54 AM 48.5290 8.9880 134° Southeast 477 549 37,100  Level FlightAware ADS-B
Tue 06:31:34 AM 48.4700 9.0810 134° Southeast 477 549 37,100  Level FlightAware ADS-B
Tue 06:32:20 AM 48.3980 9.1920 134° Southeast 471 542 37,100  Level FlightAware ADS-B
Tue 06:33:17 AM 48.3240 9.3080 134° Southeast 469 540 37,100  Level FlightAware ADS-B
Tue 06:33:54 AM 48.2530 9.4140 135° Southeast 470 541 37,100  Level FlightAware ADS-B
Tue 06:34:39 AM 48.1770 9.5150 138° Southeast 471 542 37,100  Level FlightAware ADS-B
Tue 06:35:25 AM 48.1030 9.6100 139° Southeast 473 544 37,100  Level FlightAware ADS-B
Tue 06:36:20 AM 48.0090 9.7310 139° Southeast 481 554 37,100  Level FlightAware ADS-B
Tue 06:37:13 AM 47.9190 9.8460 139° Southeast 482 555 37,100  Level FlightAware ADS-B
Tue 06:37:57 AM 47.8450 9.9400 140° Southeast 483 556 37,100  Level FlightAware ADS-B
Tue 06:38:39 AM 47.7720 10.0250 142° Southeast 486 559 37,100  Level FlightAware ADS-B
Tue 06:39:18 AM 47.7000 10.1050 143° Southeast 480 552 37,100  Level FlightAware ADS-B
Tue 06:39:59 AM 47.6280 10.1840 144° Southeast 481 554 37,100  Level FlightAware ADS-B
Tue 06:40:47 AM 47.5600 10.2580 144° Southeast 488 562 37,100  Level FlightAware ADS-B
Tue 06:41:27 AM 47.4870 10.3550 138° Southeast 485 558 37,100  Level FlightAware ADS-B
Tue 06:42:06 AM 47.4270 10.4430 135° Southeast 485 558 37,100  Level FlightAware ADS-B
Tue 06:42:50 AM 47.3520 10.5510 136° Southeast 484 557 37,100  Level FlightAware ADS-B
Tue 06:43:47 AM 47.2620 10.6820 135° Southeast 483 556 37,100  Level FlightAware ADS-B
Tue 06:44:27 AM 47.1860 10.7920 135° Southeast 485 558 37,100  Level FlightAware ADS-B
Tue 06:45:04 AM 47.1280 10.8740 136° Southeast 485 558 37,100  Level FlightAware ADS-B
Tue 06:46:05 AM 47.0500 10.9860 136° Southeast 487 560 37,100  Level FlightAware ADS-B
Tue 06:46:47 AM 46.9620 11.1110 136° Southeast 489 563 37,100  Level FlightAware ADS-B
Tue 06:47:32 AM 46.8910 11.2120 136° Southeast 490 564 37,100  Level FlightAware ADS-B
Tue 06:48:12 AM 46.8230 11.3070 136° Southeast 492 566 37,100  Level FlightAware ADS-B
Tue 06:48:52 AM 46.7590 11.3970 136° Southeast 494 568 37,100  Level FlightAware ADS-B
Tue 06:49:37 AM 46.6850 11.5010 136° Southeast 495 570 37,100  Level FlightAware ADS-B
Tue 06:50:32 AM 46.5940 11.6270 136° Southeast 493 567 37,100  Level FlightAware ADS-B
Tue 06:51:12 AM 46.5260 11.7210 136° Southeast 491 565 37,100  Level FlightAware ADS-B
Tue 06:51:57 AM 46.4520 11.8240 136° Southeast 490 564 37,100  Level FlightAware ADS-B
Tue 06:52:37 AM 46.3900 11.9090 137° Southeast 490 564 37,100  Level FlightAware ADS-B
Tue 06:53:22 AM 46.3120 12.0170 136° Southeast 491 565 37,100  Level FlightAware ADS-B
Tue 06:54:02 AM 46.2480 12.1050 136° Southeast 492 566 37,100  Level FlightAware ADS-B
Tue 06:54:42 AM 46.1790 12.1980 137° Southeast 489 563 37,100  Level FlightAware ADS-B
Tue 06:55:27 AM 46.1060 12.2990 136° Southeast 492 566 37,100  Level FlightAware ADS-B
Tue 06:56:07 AM 46.0370 12.3920 137° Southeast 494 568 37,100  Level FlightAware ADS-B
Tue 06:56:47 AM 45.9730 12.4820 136° Southeast 494 568 37,100  Level FlightAware ADS-B
Tue 06:57:32 AM 45.9100 12.6000 127° Southeast 499 574 37,100  Level FlightAware ADS-B
Tue 06:58:14 AM 45.8510 12.7070 128° Southeast 497 572 37,100  Level FlightAware ADS-B
Tue 06:58:57 AM 45.7890 12.8210 128° Southeast 498 573 37,100  Level FlightAware ADS-B
Tue 06:59:32 AM 45.7390 12.9140 128° Southeast 498 573 37,100  Level FlightAware ADS-B
Tue 07:00:49 AM 45.6320 13.1120 128° Southeast 498 573 37,100  Level FlightAware ADS-B
Tue 07:01:28 AM 45.5780 13.2130 127° Southeast 497 572 37,100  Level FlightAware ADS-B
Tue 07:02:08 AM 45.5230 13.3150 128° Southeast 496 571 37,100  Level FlightAware ADS-B
Tue 07:02:53 AM 45.4570 13.4350 128° Southeast 496 571 37,100  Level FlightAware ADS-B
Tue 07:03:34 AM 45.3990 13.5410 128° Southeast 496 571 37,100  Level FlightAware ADS-B
Tue 07:04:16 AM 45.3430 13.6400 129° Southeast 494 568 37,100  Level FlightAware ADS-B
Tue 07:04:58 AM 45.2780 13.7580 128° Southeast 495 570 37,100  Level FlightAware ADS-B
Tue 07:05:45 AM 45.2140 13.8720 129° Southeast 497 572 37,100  Level FlightAware ADS-B
Tue 07:06:23 AM 45.1600 13.9690 128° Southeast 496 571 37,100  Level FlightAware ADS-B
Tue 07:07:08 AM 45.0950 14.0850 128° Southeast 497 572 37,100  Level FlightAware ADS-B
Tue 07:07:43 AM 45.0430 14.1760 129° Southeast 491 565 37,100  Level FlightAware ADS-B
Tue 07:08:45 AM 44.9530 14.3340 129° Southeast 493 567 37,100  Level FlightAware ADS-B
Tue 07:09:25 AM 44.8950 14.4360 129° Southeast 491 565 37,100  Level FlightAware ADS-B
Tue 07:10:06 AM 44.8380 14.5340 129° Southeast 490 564 37,100  Level FlightAware ADS-B
Tue 07:10:52 AM 44.7850 14.6260 129° Southeast 489 563 37,100  Level FlightAware ADS-B
Tue 07:11:30 AM 44.7610 14.6670 129° Southeast 489 563 37,100  Level FlightAware ADS-B
Tue 07:12:17 AM 44.6700 14.8250 129° Southeast 488 562 37,100  Level FlightAware ADS-B
Tue 07:12:57 AM 44.5950 14.9540 129° Southeast 488 562 37,100  Level FlightAware ADS-B
Tue 07:13:37 AM 44.5390 15.0520 129° Southeast 488 562 37,100  Level FlightAware ADS-B
Tue 07:14:22 AM 44.4750 15.1610 129° Southeast 483 556 37,100  Level FlightAware ADS-B
Tue 07:15:02 AM 44.4170 15.2590 130° Southeast 487 560 37,100  Level FlightAware ADS-B
Tue 07:15:42 AM 44.3590 15.3570 130° Southeast 486 559 37,100  Level FlightAware ADS-B
Tue 07:16:27 AM 44.2950 15.4650 130° Southeast 482 555 37,100  Level FlightAware ADS-B
Tue 07:17:07 AM 44.2360 15.5640 130° Southeast 483 556 37,100  Level FlightAware ADS-B
Tue 07:17:51 AM 44.1710 15.6730 130° Southeast 485 558 37,100  Level FlightAware ADS-B
Tue 07:18:32 AM 44.1130 15.7690 130° Southeast 486 559 37,100  Level FlightAware ADS-B
Tue 07:19:17 AM 44.0470 15.8780 130° Southeast 488 562 37,100  Level FlightAware ADS-B
Tue 07:19:57 AM 43.9890 15.9740 130° Southeast 488 562 37,100  Level FlightAware ADS-B
Tue 07:20:40 AM 43.9260 16.0790 130° Southeast 491 565 37,100  Level FlightAware ADS-B
Tue 07:21:19 AM 43.8670 16.1760 130° Southeast 489 563 37,100  Level FlightAware ADS-B
Tue 07:22:01 AM 43.8070 16.2730 131° Southeast 488 562 37,100  Level FlightAware ADS-B
Tue 07:22:47 AM 43.7370 16.3860 131° Southeast 486 559 37,100  Level FlightAware ADS-B
Tue 07:23:27 AM 43.6790 16.4810 130° Southeast 486 559 37,100  Level FlightAware ADS-B
Tue 07:24:07 AM 43.6240 16.5690 131° Southeast 481 554 37,100  Level FlightAware ADS-B
Tue 07:24:47 AM 43.5650 16.6640 131° Southeast 480 552 37,100  Level FlightAware ADS-B
Tue 07:25:47 AM 43.4760 16.8060 131° Southeast 480 552 37,100  Level FlightAware ADS-B
Tue 07:26:27 AM 43.4180 16.8990 131° Southeast 481 554 37,100  Level FlightAware ADS-B
Tue 07:27:06 AM 43.3600 16.9930 130° Southeast 487 560 37,100  Level FlightAware ADS-B
Tue 07:27:53 AM 43.2880 17.1060 131° Southeast 489 563 37,100  Level FlightAware ADS-B
Tue 07:28:33 AM 43.2300 17.1980 131° Southeast 489 563 37,100  Level FlightAware ADS-B
Tue 07:29:17 AM 43.1650 17.3010 131° Southeast 490 564 37,100  Level FlightAware ADS-B
Tue 07:29:55 AM 43.1080 17.3910 131° Southeast 490 564 37,100  Level FlightAware ADS-B
Tue 07:30:41 AM 43.0400 17.4980 131° Southeast 491 565 37,100  Level FlightAware ADS-B
Tue 07:31:21 AM 42.9810 17.5920 131° Southeast 491 565 37,100  Level FlightAware ADS-B
Tue 07:32:05 AM 42.9160 17.6930 131° Southeast 491 565 37,100  Level FlightAware ADS-B
Tue 07:32:45 AM 42.8540 17.7900 131° Southeast 489 563 37,100  Level FlightAware ADS-B
Tue 07:33:25 AM 42.7940 17.8820 132° Southeast 488 562 37,100  Level FlightAware ADS-B
Tue 07:34:10 AM 42.7270 17.9850 132° Southeast 488 562 37,100  Level FlightAware ADS-B
Tue 07:34:54 AM 42.6620 18.0860 131° Southeast 490 564 37,100  Level FlightAware ADS-B
Tue 07:35:28 AM 42.6110 18.1630 132° Southeast 490 564 37,100  Level FlightAware ADS-B
Tue 07:36:18 AM 42.5340 18.2760 133° Southeast 490 564 37,100  Level FlightAware ADS-B
Tue 07:36:58 AM 42.4690 18.3640 135° Southeast 490 564 37,100  Level FlightAware ADS-B
Tue 07:37:42 AM 42.4000 18.4570 135° Southeast 490 564 37,100  Level FlightAware ADS-B
Tue 07:38:24 AM 42.3300 18.5500 135° Southeast 492 566 37,100  Level FlightAware ADS-B
Tue 07:39:07 AM 42.2640 18.6390 135° Southeast 493 567 37,100  Level FlightAware ADS-B
Tue 07:39:46 AM 42.1970 18.7270 136° Southeast 494 568 37,100  Level FlightAware ADS-B
Tue 07:40:28 AM 42.1280 18.8190 135° Southeast 494 568 37,100  Level FlightAware ADS-B
Tue 07:41:10 AM 42.0590 18.9100 136° Southeast 496 571 37,100  Level FlightAware ADS-B
Tue 07:41:52 AM 41.9920 18.9990 135° Southeast 497 572 37,100  Level FlightAware ADS-B
Tue 07:42:34 AM 41.9230 19.0900 136° Southeast 496 571 37,100  Level FlightAware ADS-B
Tue 07:43:16 AM 41.8530 19.1820 136° Southeast 497 572 37,100  Level FlightAware ADS-B
Tue 07:44:00 AM 41.7810 19.2740 136° Southeast 495 570 37,100  Level FlightAware ADS-B
Tue 07:44:36 AM 41.7300 19.3400 136° Southeast 496 571 37,100  Level FlightAware ADS-B
Tue 07:45:24 AM 41.6410 19.4530 136° Southeast 497 572 37,100  Level FlightAware ADS-B
Tue 07:46:04 AM 41.5740 19.5390 136° Southeast 497 572 37,100  Level FlightAware ADS-B
Tue 07:46:49 AM 41.5000 19.6320 137° Southeast 497 572 37,100  Level FlightAware ADS-B
Tue 07:47:29 AM 41.4320 19.7180 137° Southeast 499 574 37,100  Level FlightAware ADS-B
Tue 07:48:09 AM 41.3650 19.8030 136° Southeast 500 575 37,100  Level FlightAware ADS-B
Tue 07:48:53 AM 41.2900 19.8970 137° Southeast 501 577 37,100  Level FlightAware ADS-B
Tue 07:49:33 AM 41.2240 19.9790 137° Southeast 502 578 37,100  Level FlightAware ADS-B
Tue 07:50:11 AM 41.1590 20.0590 137° Southeast 502 578 37,100  Level FlightAware ADS-B
Tue 07:50:57 AM 41.0810 20.1560 137° Southeast 501 577 37,100  Level FlightAware ADS-B
Tue 07:51:41 AM 41.0080 20.2470 137° Southeast 502 578 37,100  Level FlightAware ADS-B
Tue 07:52:21 AM 40.9390 20.3330 137° Southeast 501 577 37,100  Level FlightAware ADS-B
Tue 07:53:05 AM 40.8630 20.4260 137° Southeast 501 577 37,100  Level FlightAware ADS-B
Tue 07:53:45 AM 40.7960 20.5090 137° Southeast 503 579 37,100  Level FlightAware ADS-B
Tue 07:54:30 AM 40.7200 20.6030 137° Southeast 504 580 37,100  Level FlightAware ADS-B
Tue 07:55:10 AM 40.6530 20.6850 137° Southeast 503 579 37,100  Level FlightAware ADS-B
Tue 07:55:50 AM 40.5870 20.7650 137° Southeast 503 579 37,100  Level FlightAware ADS-B
Tue 07:56:30 AM 40.5180 20.8490 137° Southeast 502 578 37,100  Level FlightAware ADS-B
Tue 07:57:15 AM 40.4400 20.9440 137° Southeast 496 571 37,100  Level FlightAware ADS-B
Tue 07:57:45 AM 40.3890 21.0070 137° Southeast 501 577 37,100  Level FlightAware ADS-B
Tue 07:58:25 AM 40.3220 21.0890 137° Southeast 502 578 37,100  Level FlightAware ADS-B
Tue 07:59:10 AM 40.2450 21.1830 137° Southeast 502 578 37,100  Level FlightAware ADS-B
Tue 07:59:50 AM 40.1770 21.2650 137° Southeast 502 578 37,100  Level FlightAware ADS-B
Tue 08:00:52 AM 40.0750 21.3880 137° Southeast 501 577 37,100  Level FlightAware ADS-B
Tue 08:01:35 AM 39.9970 21.4810 138° Southeast 503 579 37,100  Level FlightAware ADS-B
Tue 08:02:15 AM 39.9290 21.5630 137° Southeast 503 579 37,100  Level FlightAware ADS-B
Tue 08:03:00 AM 39.8510 21.6560 138° Southeast 506 582 37,100  Level FlightAware ADS-B
Tue 08:03:39 AM 39.7820 21.7390 137° Southeast 505 581 37,100  Level FlightAware ADS-B
Tue 08:04:20 AM 39.7130 21.8210 138° Southeast 504 580 37,100  Level FlightAware ADS-B
Tue 08:05:05 AM 39.6410 21.9060 138° Southeast 502 578 37,100  Level FlightAware ADS-B
Tue 08:05:50 AM 39.5590 22.0030 138° Southeast 502 578 37,100  Level FlightAware ADS-B
Tue 08:06:30 AM 39.4900 22.0850 137° Southeast 503 579 37,100  Level FlightAware ADS-B
Tue 08:07:14 AM 39.4120 22.1760 138° Southeast 504 580 37,100  Level FlightAware ADS-B
Tue 08:07:55 AM 39.3430 22.2570 138° Southeast 504 580 37,100  Level FlightAware ADS-B
Tue 08:08:35 AM 39.2740 22.3380 138° Southeast 504 580 37,100  Level FlightAware ADS-B
Tue 08:09:15 AM 39.2040 22.4190 138° Southeast 499 574 37,100  Level FlightAware ADS-B
Tue 08:10:00 AM 39.1260 22.5100 138° Southeast 500 575 37,100  Level FlightAware ADS-B
Tue 08:10:42 AM 39.0890 22.5520 139° Southeast 506 582 37,100  Level FlightAware ADS-B
Tue 08:11:24 AM 38.9780 22.6800 138° Southeast 505 581 37,100  Level FlightAware ADS-B
Tue 08:12:02 AM 38.9300 22.7360 138° Southeast 504 580 37,100  Level FlightAware ADS-B
Tue 08:12:48 AM 38.8320 22.8490 138° Southeast 504 580 37,100  Level FlightAware ADS-B
Tue 08:13:33 AM 38.7550 22.9370 138° Southeast 502 578 37,100  Level FlightAware ADS-B
Tue 08:14:14 AM 38.6830 23.0200 138° Southeast 504 580 37,100  Level FlightAware ADS-B
Tue 08:14:54 AM 38.6140 23.0990 138° Southeast 501 577 37,100  Level FlightAware ADS-B
Tue 08:15:30 AM 38.5510 23.1710 138° Southeast 500 575 37,100  Level FlightAware ADS-B
Tue 08:16:18 AM 38.4920 23.2380 138° Southeast 502 578 37,100  Level FlightAware ADS-B
Tue 08:17:00 AM 38.3960 23.3460 139° Southeast 501 577 37,100  Level FlightAware ADS-B
Tue 08:17:42 AM 38.3220 23.4300 138° Southeast 503 579 37,100  Level FlightAware ADS-B
Tue 08:18:24 AM 38.2480 23.5130 139° Southeast 502 578 37,100  Level FlightAware ADS-B
Tue 08:19:08 AM 38.1720 23.5980 139° Southeast 501 577 37,100  Level FlightAware ADS-B
Tue 08:19:48 AM 38.1020 23.6780 138° Southeast 502 578 37,100  Level FlightAware ADS-B
Tue 08:20:44 AM 38.0060 23.7850 139° Southeast 500 575 37,100  Level FlightAware ADS-B
Tue 08:21:28 AM 37.9290 23.8710 139° Southeast 498 573 37,100  Level FlightAware ADS-B
Tue 08:22:10 AM 37.8670 23.9680 129° Southeast 512 589 37,100  Level FlightAware ADS-B
Tue 08:22:50 AM 37.8200 24.0680 121° Southeast 510 587 37,100  Level FlightAware ADS-B
Tue 08:23:34 AM 37.7630 24.1790 123° Southeast 509 586 37,100  Level FlightAware ADS-B
Tue 08:24:14 AM 37.7110 24.2790 123° Southeast 508 585 37,100  Level FlightAware ADS-B
Tue 08:24:58 AM 37.6530 24.3860 124° Southeast 508 585 37,100  Level FlightAware ADS-B
Tue 08:25:54 AM 37.5840 24.5270 122° Southeast 510 587 37,100  Level FlightAware ADS-B
Tue 08:26:36 AM 37.5300 24.6350 122° Southeast 511 588 37,100  Level FlightAware ADS-B
Tue 08:27:12 AM 37.4840 24.7260 122° Southeast 513 590 37,100  Level FlightAware ADS-B
Tue 08:27:58 AM 37.4250 24.8420 123° Southeast 515 593 37,100  Level FlightAware ADS-B
Tue 08:28:42 AM 37.3670 24.9530 123° Southeast 519 597 37,100  Level FlightAware ADS-B
Tue 08:29:24 AM 37.3140 25.0570 123° Southeast 519 597 37,100  Level FlightAware ADS-B
Tue 08:30:06 AM 37.2580 25.1670 123° Southeast 520 598 37,100  Level FlightAware ADS-B
Tue 08:30:44 AM 37.2090 25.2610 123° Southeast 520 598 37,100 286 Level FlightAware ADS-B
Tue 08:31:30 AM 37.1490 25.3780 123° Southeast 523 602 37,500 698 Climbing FlightAware ADS-B
Tue 08:32:10 AM 37.0960 25.4810 123° Southeast 522 601 38,100 439 Climbing FlightAware ADS-B
Tue 08:32:52 AM 37.0410 25.5860 123° Southeast 522 601 38,100  Level FlightAware ADS-B
Tue 08:33:34 AM 36.9850 25.6950 123° Southeast 522 601 38,100  Level FlightAware ADS-B
Tue 08:34:18 AM 36.9270 25.8060 123° Southeast 522 601 38,100  Level FlightAware ADS-B
Tue 08:34:57 AM 36.8770 25.9020 123° Southeast 523 602 38,100  Level FlightAware ADS-B
Tue 08:35:41 AM 36.8310 25.9900 123° Southeast 524 603 38,100  Level FlightAware ADS-B
Tue 08:36:20 AM 36.7660 26.1130 123° Southeast 523 602 38,100  Level FlightAware ADS-B
Tue 08:37:06 AM 36.7050 26.2290 123° Southeast 524 603 38,100 -341 Level FlightAware ADS-B
Tue 08:37:48 AM 36.6490 26.3350 123° Southeast 521 600 37,600 -732 Descending FlightAware ADS-B
Tue 08:38:28 AM 36.5960 26.4350 123° Southeast 516 594 37,100 -357 Descending FlightAware ADS-B
Tue 08:39:12 AM 36.5380 26.5440 123° Southeast 514 592 37,100  Level FlightAware ADS-B
Tue 08:39:50 AM 36.4900 26.6340 124° Southeast 517 595 37,100  Level FlightAware ADS-B
Tue 08:40:34 AM 36.4300 26.7450 124° Southeast 518 596 37,100  Level FlightAware ADS-B
Tue 08:41:14 AM 36.3790 26.8410 123° Southeast 519 597 37,100  Level FlightAware ADS-B
Tue 08:42:13 AM 36.3000 26.9860 124° Southeast 519 597 37,100  Level FlightAware ADS-B
Tue 08:42:47 AM 36.2530 27.0720 124° Southeast 518 596 37,100  Level FlightAware ADS-B
Tue 08:43:38 AM 36.1840 27.2010 124° Southeast 515 593 37,100  Level FlightAware ADS-B
Tue 08:44:19 AM 36.1380 27.2860 124° Southeast 515 593 37,100  Level FlightAware ADS-B
Tue 08:45:59 AM 35.9990 27.5380 121° Southeast 509 586 37,100  Level FlightAware ADS-B
Tue 08:46:00 AM 36.0147 27.5380 121° Southeast  Level Estimated
Tue 08:46:34 AM 35.9500 27.6250 125° Southeast 510 587 37,100  Level FlightAware ADS-B
Tue 08:47:19 AM 35.8910 27.7330 124° Southeast 513 590 37,100  Level FlightAware ADS-B
Tue 08:48:04 AM 35.8300 27.8410 125° Southeast 513 590 37,100  Level FlightAware ADS-B
Tue 08:48:45 AM 35.7740 27.9420 124° Southeast 513 590 37,100  Level FlightAware ADS-B
Tue 08:49:24 AM 35.7220 28.0360 124° Southeast 515 593 37,100  Level FlightAware ADS-B
Tue 08:50:07 AM 35.6640 28.1400 124° Southeast 517 595 37,100  Level FlightAware ADS-B
Tue 08:50:51 AM 35.6050 28.2450 125° Southeast 515 593 37,100  Level FlightAware ADS-B
Tue 08:51:31 AM 35.5490 28.3440 125° Southeast 516 594 37,100  Level FlightAware ADS-B
Tue 08:52:15 AM 35.4890 28.4500 125° Southeast 516 594 37,100  Level FlightAware ADS-B
Tue 08:52:55 AM 35.4350 28.5450 125° Southeast 517 595 37,100  Level FlightAware ADS-B
Tue 08:53:38 AM 35.3830 28.6360 125° Southeast 514 592 37,100  Level FlightAware ADS-B
Tue 08:54:20 AM 35.3190 28.7470 125° Southeast 511 588 37,100  Level FlightAware ADS-B
Tue 08:54:59 AM 35.2660 28.8400 125° Southeast 509 586 37,100  Level FlightAware ADS-B
Tue 08:55:45 AM 35.2100 28.9390 125° Southeast 507 583 37,100  Level FlightAware ADS-B
Tue 08:56:29 AM 35.1440 29.0530 125° Southeast 507 583 37,100  Level FlightAware ADS-B
Tue 08:57:03 AM 35.0990 29.1300 126° Southeast 508 585 37,100  Level FlightAware ADS-B
Tue 08:57:48 AM 35.0440 29.2240 126° Southeast 508 585 37,100  Level FlightAware ADS-B
Tue 08:58:43 AM 34.9720 29.3500 125° Southeast 503 579 37,100  Level FlightAware ADS-B
Tue 08:59:28 AM 34.9020 29.4650 127° Southeast 504 580 37,100  Level FlightAware ADS-B
Tue 09:00:10 AM 34.8460 29.5600 126° Southeast 507 583 37,100  Level FlightAware ADS-B
Tue 09:00:54 AM 34.7840 29.6660 125° Southeast 509 586 37,100  Level FlightAware ADS-B
Tue 09:01:29 AM 34.7340 29.7490 126° Southeast 511 588 37,100  Level FlightAware ADS-B
Tue 09:02:14 AM 34.6730 29.8530 125° Southeast 511 588 37,100  Level FlightAware ADS-B
Tue 09:03:01 AM 34.6200 29.9450 125° Southeast 511 588 37,100  Level FlightAware ADS-B
Tue 09:03:35 AM 34.5680 30.0390 124° Southeast 528 608 37,100  Level FlightAware ADS-B
Tue 09:04:20 AM 34.5080 30.1660 120° Southeast 525 604 37,100  Level FlightAware ADS-B
Tue 09:05:00 AM 34.4590 30.2670 120° Southeast 523 602 37,100  Level FlightAware ADS-B
Tue 09:05:45 AM 34.4040 30.3810 120° Southeast 521 600 37,100  Level FlightAware ADS-B
Tue 09:06:29 AM 34.3480 30.4960 121° Southeast 518 596 37,100  Level FlightAware ADS-B
Tue 09:07:10 AM 34.2980 30.5960 121° Southeast 517 595 37,100  Level FlightAware ADS-B
Tue 09:07:50 AM 34.2500 30.6950 120° Southeast 517 595 37,100  Level FlightAware ADS-B
Tue 09:08:35 AM 34.1930 30.8110 121° Southeast 513 590 37,100  Level FlightAware ADS-B
Tue 09:09:16 AM 34.1480 30.9030 121° Southeast 507 583 37,100  Level FlightAware ADS-B
Tue 09:09:56 AM 34.0970 31.0060 121° Southeast 504 580 37,100  Level FlightAware ADS-B
Tue 09:10:37 AM 34.0480 31.1050 121° Southeast 501 577 37,100  Level FlightAware ADS-B
Tue 09:11:43 AM 33.9890 31.2240 121° Southeast 499 574 37,100  Level FlightAware ADS-B
Tue 09:12:22 AM 33.9220 31.3580 121° Southeast 499 574 37,100  Level FlightAware ADS-B
Tue 09:13:03 AM 33.8740 31.4550 121° Southeast 499 574 37,100  Level FlightAware ADS-B
Tue 09:13:49 AM 33.8210 31.5620 121° Southeast 500 575 37,100  Level FlightAware ADS-B
Tue 09:14:34 AM 33.7650 31.6720 121° Southeast 500 575 37,100  Level FlightAware ADS-B
Tue 09:15:09 AM 33.7240 31.7550 121° Southeast 499 574 37,100  Level FlightAware ADS-B
Tue 09:15:55 AM 33.6680 31.8650 121° Southeast 499 574 37,100  Level FlightAware ADS-B
Tue 09:16:36 AM 33.6200 31.9610 121° Southeast 499 574 37,100  Level FlightAware ADS-B
Tue 09:17:20 AM 33.5660 32.0670 121° Southeast 499 574 37,100  Level FlightAware ADS-B
Tue 09:18:01 AM 33.5180 32.1620 121° Southeast 499 574 37,100  Level FlightAware ADS-B
Tue 09:18:37 AM 33.4750 32.2450 122° Southeast 499 574 37,100  Level FlightAware ADS-B
Tue 09:19:27 AM 33.4130 32.3670 121° Southeast 498 573 37,100  Level FlightAware ADS-B
Tue 09:20:07 AM 33.3660 32.4570 122° Southeast 498 573 37,100  Level FlightAware ADS-B
Tue 09:20:50 AM 33.3140 32.5580 122° Southeast 498 573 37,100 -750 Level FlightAware ADS-B
Tue 09:21:43 AM 33.2480 32.6870 121° Southeast 500 575 35,900 -1,556 Descending FlightAware ADS-B
Tue 09:22:38 AM 33.1840 32.8100 122° Southeast 491 565 34,300 -1,706 Descending FlightAware ADS-B
Tue 09:23:25 AM 33.1250 32.9240 122° Southeast 498 573 33,000 -809 Descending FlightAware ADS-B
Tue 09:24:07 AM 33.0750 33.0220 121° Southeast 497 572 33,100 77 Climbing FlightAware ADS-B
Tue 09:24:43 AM 33.0330 33.1060 121° Southeast 498 573 33,100 -563 Level FlightAware ADS-B
Tue 09:25:43 AM 32.9620 33.2450 121° Southeast 476 548 32,200 -941 Descending FlightAware ADS-B
Tue 09:26:25 AM 32.9140 33.3380 122° Southeast 454 522 31,500 -1,326 Descending FlightAware ADS-B
Tue 09:27:09 AM 32.8870 33.4430 107° East 466 536 30,300 -1,724 Descending FlightAware ADS-B
Tue 09:27:52 AM 32.8760 33.5540 97° East 454 522 29,000 -1,929 Descending FlightAware ADS-B
Tue 09:28:33 AM 32.8640 33.6520 98° East 439 505 27,600 -2,203 Descending FlightAware ADS-B
Tue 09:29:11 AM 32.8300 33.7320 117° Southeast 412 474 26,100 -2,357 Descending FlightAware ADS-B
Tue 09:29:57 AM 32.7650 33.7940 141° Southeast 384 442 24,300 -2,864 Descending FlightAware ADS-B
Tue 09:30:39 AM 32.7030 33.8450 145° Southeast 391 450 21,900 -3,375 Descending FlightAware ADS-B
Tue 09:31:17 AM 32.6480 33.8920 144° Southeast 388 447 19,800 -3,951 Descending FlightAware ADS-B
Tue 09:32:01 AM 32.5820 33.9460 145° Southeast 401 461 16,500 -4,207 Descending FlightAware ADS-B
Tue 09:32:44 AM 32.5080 33.9750 162° South 382 440 13,700 -1,983 Descending FlightAware ADS-B
Tue 09:33:56 AM 32.4020 34.0050 167° South 355 409 12,700 -1,721 Descending FlightAware ADS-B
Tue 09:34:46 AM 32.3210 34.0290 166° South 302 348 10,200 -2,522 Descending FlightAware ADS-B
Tue 09:35:05 AM 32.3000 34.0460 146° Southeast 315 362 9,800 -1,355 Descending FlightAware ADS-B
Tue 09:35:17 AM 32.2880 34.0630 130° Southeast 322 371 9,500 -1,250 Descending FlightAware ADS-B
Tue 09:35:29 AM 32.2810 34.0830 112° Southeast 326 375 9,300 -923 Descending FlightAware ADS-B
Tue 09:35:43 AM 32.2790 34.1060 96° East 326 375 9,100 -955 Descending FlightAware ADS-B
Tue 09:36:13 AM 32.2740 34.1610 96° East 325 374 8,600 -724 Descending FlightAware ADS-B
Tue 09:36:41 AM 32.2700 34.2110 95° East 324 373 8,400 -610 Descending FlightAware ADS-B
Tue 09:37:12 AM 32.2650 34.2660 96° East 320 368 8,000 -435 Descending FlightAware ADS-B
Tue 09:37:50 AM 32.2610 34.3210 95° East 320 368 7,900 -158 Descending FlightAware ADS-B
Tue 09:40:00 AM 32.1169 34.6406 125° Southeast  Level Estimated
Tue 09:41:00 AM 32.0501 34.7878 125° Southeast  Level Estimated
Tue 09:42:00 AM 32.0000 34.8667 125° Southeast  Level FlightAware Approximate
Tue 09:43:00 AM 32.0095 34.8769 125° Southeast  Level Estimated
Tue 09:44:00 AM 32.0095 34.8769 125° Southeast  Level Estimated
Tue 09:45:00 AM 32.0095 34.8769 125° Southeast  Level Estimated
Tue 09:46:00 AM 32.0095 34.8769 125° Southeast  Level Estimated
Tue 09:47:00 AM 32.0095 34.8769 125° Southeast  Level Estimated
Tue 09:48:00 AM 32.0095 34.8769 125° Southeast  Level Estimated
Tue 09:49:00 AM 32.0095 34.8769 125° Southeast  Level Estimated
Tue 09:50:00 AM 32.0095 34.8769 125° Southeast  Level Estimated

Login

Don't have an account? Register now (free) for customized features, flight alerts, and more!